Flight Track Log - Related Links

Times and Time Zones

All times are in EDT time to prevent confusion due to time zone crossing. See the DAL268 flight status page for this flight to view local times or setup timezone preferences in your user account.

Time Position Orientation Groundspeed Altitude Reporting Facility
EDT Latitude Longitude Course Direction KTS MPH feet Rate Location/Type
Tue 11:34:41 PM 40.6220 -73.7860 North  Level FlightAware ADS-B
Tue 11:36:53 PM 40.6220 -73.7850 90° East 2 2 13 Level FlightAware ADS-B
Tue 11:39:00 PM 40.7908 -73.4748 123° Southeast  Level Estimated
Tue 11:40:00 PM 40.8703 -73.3278 105° East  Level Estimated
Tue 11:40:44 PM 40.6230 -73.7850 119° Southeast 2 2  Level FlightAware ADS-B
Tue 11:41:00 PM 40.9496 -73.1803 119° Southeast  Level Estimated
Tue 11:43:00 PM 40.8037 -73.4528 123° Southeast  Level Estimated
Tue 11:44:00 PM 40.8832 -73.3056 105° East  Level Estimated
Tue 11:45:00 PM 40.9624 -73.1582 114° Southeast  Level Estimated
Tue 11:45:27 PM 40.6220 -73.7850 114° Southeast 2 2  Level FlightAware ADS-B
Tue 11:47:46 PM 40.6230 -73.7850 114° Southeast 24 Level FlightAware ADS-B
Tue 11:48:00 PM 40.8253 -73.4111 114° Southeast  Level Estimated
Tue 11:49:41 PM 40.6230 -73.7860 270° West  Level FlightAware ADS-B
Tue 11:51:06 PM 40.6220 -73.7850 143° Southeast 16 18 37 Level FlightAware ADS-B
Tue 11:51:48 PM 40.6210 -73.7860 217° Southwest 22 25 44 Level FlightAware ADS-B
Tue 11:52:31 PM 40.6200 -73.7850 143° Southeast 24 28 49 Level FlightAware ADS-B
Tue 11:53:00 PM 40.6190 -73.7840 143° Southeast 23 26 56 Level FlightAware ADS-B
Tue 11:53:43 PM 40.6190 -73.7820 90° East 20 23 62 Level FlightAware ADS-B
Tue 11:54:22 PM 40.6180 -73.7800 123° Southeast 22 25 72 Level FlightAware ADS-B
Tue 11:54:40 PM 40.6170 -73.7800 180° South 21 24 86 Level FlightAware ADS-B
Tue 11:54:50 PM 40.6170 -73.7790 90° East 18 21 94 Level FlightAware ADS-B
Tue 11:55:19 PM 40.6160 -73.7780 143° Southeast 20 23 99 Level FlightAware ADS-B
Tue 11:55:48 PM 40.6160 -73.7790 270° West 15 17 118 Level FlightAware ADS-B
Tue 11:56:00 PM 40.6150 -73.7790 180° South 17 20 145 Level FlightAware ADS-B
Tue 11:56:26 PM 40.6150 -73.7800 270° West 16 18 161 Level FlightAware ADS-B
Tue 11:56:57 PM 40.6170 -73.7830 311° West 67 77 209 Level FlightAware ADS-B
Tue 11:57:26 PM 40.6240 -73.8000 298° West 155 178 327 Level FlightAware ADS-B
Tue 11:57:52 PM 40.6360 -73.8250 302° West 181 208 300 750 Climbing FlightAware ADS-B
Tue 11:58:06 PM 40.6390 -73.8400 285° West 186 214 500 1,467 Climbing FlightAware ADS-B
Tue 11:58:37 PM 40.6280 -73.8710 245° Southwest 183 211 1,400 1,300 Climbing FlightAware ADS-B
Tue 11:59:06 PM 40.6070 -73.8930 218° Southwest 213 245 1,800 1,024 Climbing FlightAware ADS-B
Tue 11:59:18 PM 40.5960 -73.8990 202° Southwest 219 252 2,100 1,350 Climbing FlightAware ADS-B
Tue 11:59:46 PM 40.5680 -73.8880 163° South 263 303 2,700 1,350 Climbing FlightAware ADS-B
Tue 11:59:58 PM 40.5580 -73.8730 131° Southeast 280 322 3,000 1,500 Climbing FlightAware ADS-B
Wed 12:00:14 AM 40.5510 -73.8460 109° East 303 349 3,400 2,182 Climbing FlightAware ADS-B
Wed 12:00:42 AM 40.5570 -73.7950 81° East 309 356 4,600 2,483 Climbing FlightAware ADS-B
Wed 12:01:12 AM 40.5676 -73.7378 76° East 319 367 5,800 2,667 Climbing FlightAware ADS-B
Wed 12:01:27 AM 40.5726 -73.7080 78° East 322 371 6,600 3,000 Climbing FlightAware ADS-B
Wed 12:01:32 AM 40.5740 -73.6988 79° East 322 371 6,800 2,500 Climbing FlightAware ADS-B
Wed 12:01:39 AM 40.5749 -73.6849 85° East 325 374 7,100 2,308 Climbing FlightAware ADS-B
Wed 12:01:45 AM 40.5747 -73.6736 91° East 326 375 7,300 2,500 Climbing FlightAware ADS-B
Wed 12:01:51 AM 40.5737 -73.6614 96° East 327 376 7,600 2,727 Climbing FlightAware ADS-B
Wed 12:01:56 AM 40.5725 -73.6528 100° East 328 377 7,800 2,400 Climbing FlightAware ADS-B
Wed 12:02:01 AM 40.5704 -73.6431 106° East 328 377 8,000 2,700 Climbing FlightAware ADS-B
Wed 12:02:16 AM 40.5621 -73.6138 110° East 329 379 8,700 2,710 Climbing FlightAware ADS-B
Wed 12:02:32 AM 40.5534 -73.5850 112° Southeast 331 381 9,400 2,267 Climbing FlightAware ADS-B
Wed 12:03:01 AM 40.5367 -73.5296 112° Southeast 347 399 10,400 1,500 Climbing FlightAware ADS-B
Wed 12:03:32 AM 40.5174 -73.4661 112° Southeast 378 435 10,900 1,065 Climbing FlightAware ADS-B
Wed 12:04:03 AM 40.4969 -73.3981 112° Southeast 404 465 11,500 1,320 Climbing FlightAware ADS-B
Wed 12:04:22 AM 40.4831 -73.3521 112° Southeast 420 483 12,000 1,556 Climbing FlightAware ADS-B
Wed 12:04:30 AM 40.4787 -73.3328 107° East 424 488 12,200 1,800 Climbing FlightAware ADS-B
Wed 12:04:42 AM 40.4746 -73.3018 100° East 425 489 12,600 2,250 Climbing FlightAware ADS-B
Wed 12:04:46 AM 40.4741 -73.2925 94° East 426 490 12,800 2,250 Climbing FlightAware ADS-B
Wed 12:04:58 AM 40.4743 -73.2606 90° East 426 490 13,200 2,308 Climbing FlightAware ADS-B
Wed 12:05:12 AM 40.4789 -73.2245 80° East 427 491 13,800 2,500 Climbing FlightAware ADS-B
Wed 12:05:22 AM 40.4846 -73.1998 73° East 425 489 14,200 2,222 Climbing FlightAware ADS-B
Wed 12:05:39 AM 40.4987 -73.1606 65° Northeast 424 488 14,800 2,270 Climbing FlightAware ADS-B
Wed 12:05:59 AM 40.5217 -73.1196 54° Northeast 421 484 15,600 2,129 Climbing FlightAware ADS-B
Wed 12:06:10 AM 40.5351 -73.0978 51° Northeast 427 491 15,900 1,902 Climbing FlightAware ADS-B
Wed 12:06:40 AM 40.5654 -73.0287 60° Northeast 439 505 16,900 1,889 Climbing FlightAware ADS-B
Wed 12:07:04 AM 40.5895 -72.9739 60° Northeast 445 512 17,600 1,778 Climbing FlightAware ADS-B
Wed 12:07:34 AM 40.6224 -72.9027 59° Northeast 453 521 18,500 1,800 Climbing FlightAware ADS-B
Wed 12:08:04 AM 40.6561 -72.8306 58° Northeast 459 528 19,400 1,672 Climbing FlightAware ADS-B
Wed 12:08:35 AM 40.6902 -72.7587 58° Northeast 467 537 20,200 1,574 Climbing FlightAware ADS-B
Wed 12:09:05 AM 40.7258 -72.6841 58° Northeast 473 544 21,000 1,548 Climbing FlightAware ADS-B
Wed 12:09:37 AM 40.7628 -72.6058 58° Northeast 480 552 21,800 1,452 Climbing FlightAware ADS-B
Wed 12:10:07 AM 40.7985 -72.5303 58° Northeast 487 560 22,500 1,452 Climbing FlightAware ADS-B
Wed 12:10:39 AM 40.8360 -72.4502 58° Northeast 491 565 23,300 1,452 Climbing FlightAware ADS-B
Wed 12:11:09 AM 40.8723 -72.3726 58° Northeast 497 572 24,000 1,300 Climbing FlightAware ADS-B
Wed 12:11:39 AM 40.9090 -72.2944 58° Northeast 504 580 24,600 1,279 Climbing FlightAware ADS-B
Wed 12:12:10 AM 40.9473 -72.2117 58° Northeast 510 587 25,300 1,258 Climbing FlightAware ADS-B
Wed 12:12:41 AM 40.9846 -72.1313 58° Northeast 513 590 25,900 1,279 Climbing FlightAware ADS-B
Wed 12:13:11 AM 41.0229 -72.0490 58° Northeast 517 595 26,600 1,355 Climbing FlightAware ADS-B
Wed 12:13:43 AM 41.0626 -71.9631 58° Northeast 519 597 27,300 1,355 Climbing FlightAware ADS-B
Wed 12:14:13 AM 41.1007 -71.8802 59° Northeast 520 598 28,000 1,279 Climbing FlightAware ADS-B
Wed 12:14:44 AM 41.1385 -71.7979 59° Northeast 522 601 28,600 1,258 Climbing FlightAware ADS-B
Wed 12:15:15 AM 41.1775 -71.7126 59° Northeast 519 597 29,300 1,477 Climbing FlightAware ADS-B
Wed 12:15:49 AM 41.2205 -71.6187 59° Northeast 516 594 30,200 1,370 Climbing FlightAware ADS-B
Wed 12:16:47 AM 41.2900 -71.4670 59° Northeast 514 592 31,400 1,226 Climbing FlightAware ADS-B
Wed 12:17:22 AM 41.3330 -71.3720 59° Northeast 511 588 32,100 1,200 Climbing FlightAware ADS-B
Wed 12:18:07 AM 41.3890 -71.2480 59° Northeast 510 587 33,000 600 Climbing FlightAware ADS-B
Wed 12:18:52 AM 41.4410 -71.1310 59° Northeast 508 585 33,000  Level FlightAware ADS-B
Wed 12:19:32 AM 41.4880 -71.0270 59° Northeast 508 585 33,000  Level FlightAware ADS-B
Wed 12:20:33 AM 41.5630 -70.8590 59° Northeast 507 583 33,000  Level FlightAware ADS-B
Wed 12:21:08 AM 41.6050 -70.7630 60° Northeast 507 583 33,000  Level FlightAware ADS-B
Wed 12:21:52 AM 41.6440 -70.6750 59° Northeast 507 583 33,000  Level FlightAware ADS-B
Wed 12:22:32 AM 41.6930 -70.5650 59° Northeast 507 583 33,000  Level FlightAware ADS-B
Wed 12:23:18 AM 41.7570 -70.4190 60° Northeast 507 583 33,000  Level FlightAware ADS-B
Wed 12:23:57 AM 41.8060 -70.3060 60° Northeast 506 582 33,000  Level FlightAware ADS-B
Wed 12:24:43 AM 41.8610 -70.1790 60° Northeast 501 577 33,000  Level FlightAware ADS-B
Wed 12:25:23 AM 41.9060 -70.0770 59° Northeast 501 577 33,000  Level FlightAware ADS-B
Wed 12:26:09 AM 41.9590 -69.9550 60° Northeast 499 574 33,000  Level FlightAware ADS-B
Wed 12:26:49 AM 42.0070 -69.8430 60° Northeast 499 574 33,000  Level FlightAware ADS-B
Wed 12:27:24 AM 42.0490 -69.7440 60° Northeast 499 574 33,000  Level FlightAware ADS-B
Wed 12:28:29 AM 42.1240 -69.5700 60° Northeast 499 574 33,000  Level FlightAware ADS-B
Wed 12:29:09 AM 42.1700 -69.4600 61° Northeast 500 575 33,000  Level FlightAware ADS-B
Wed 12:29:44 AM 42.2090 -69.3690 60° Northeast 501 577 33,000  Level FlightAware ADS-B
Wed 12:30:29 AM 42.2640 -69.2390 60° Northeast 501 577 33,000  Level FlightAware ADS-B
Wed 12:31:29 AM 42.3310 -69.0810 60° Northeast 501 577 33,000  Level FlightAware ADS-B
Wed 12:32:09 AM 42.3780 -68.9670 61° Northeast 501 577 33,000  Level FlightAware ADS-B
Wed 12:33:04 AM 42.4400 -68.8190 60° Northeast 502 578 33,000  Level FlightAware ADS-B
Wed 12:33:49 AM 42.4940 -68.6890 61° Northeast 502 578 33,000  Level FlightAware ADS-B
Wed 12:34:29 AM 42.5400 -68.5790 60° Northeast 503 579 33,000  Level FlightAware ADS-B
Wed 12:35:09 AM 42.5810 -68.4780 61° Northeast 503 579 33,000  Level FlightAware ADS-B
Wed 12:35:59 AM 42.6350 -68.3480 61° Northeast 509 586 33,000  Level FlightAware ADS-B
Wed 12:36:35 AM 42.6690 -68.2620 62° Northeast 509 586 33,000  Level FlightAware ADS-B
Wed 12:37:12 AM 42.7050 -68.1740 61° Northeast 509 586 33,000  Level FlightAware ADS-B
Wed 12:38:01 AM 42.7530 -68.0570 61° Northeast 509 586 33,000  Level FlightAware ADS-B
Wed 12:38:44 AM 42.8330 -67.8620 61° Northeast 511 588 33,000  Level FlightAware ADS-B
Wed 12:39:24 AM 42.8760 -67.7530 62° Northeast 513 590 33,000  Level FlightAware ADS-B
Wed 12:40:05 AM 42.9230 -67.6360 61° Northeast 514 592 33,000  Level FlightAware ADS-B
Wed 12:40:49 AM 42.9750 -67.5070 61° Northeast 514 592 33,000  Level FlightAware ADS-B
Wed 12:41:30 AM 43.0210 -67.3900 62° Northeast 517 595 33,000  Level FlightAware ADS-B
Wed 12:42:15 AM 43.0710 -67.2650 61° Northeast 516 594 33,000  Level FlightAware ADS-B
Wed 12:42:54 AM 43.1150 -67.1530 62° Northeast 514 592 33,000  Level FlightAware ADS-B
Wed 12:43:35 AM 43.1620 -67.0330 62° Northeast 511 588 33,000  Level FlightAware ADS-B
Wed 12:44:19 AM 43.2080 -66.9180 61° Northeast 511 588 33,000  Level FlightAware ADS-B
Wed 12:45:02 AM 43.2530 -66.8040 62° Northeast 512 589 33,000  Level FlightAware ADS-B
Wed 12:45:45 AM 43.3060 -66.6630 63° Northeast 514 592 33,000  Level FlightAware ADS-B
Wed 12:46:25 AM 43.3520 -66.5460 62° Northeast 513 590 33,000  Level FlightAware ADS-B
Wed 12:47:10 AM 43.4020 -66.4160 62° Northeast 515 593 33,000  Level FlightAware ADS-B
Wed 12:47:49 AM 43.4460 -66.3010 62° Northeast 518 596 33,000  Level FlightAware ADS-B
Wed 12:48:30 AM 43.4920 -66.1820 62° Northeast 520 598 33,000  Level FlightAware ADS-B
Wed 12:49:14 AM 43.5410 -66.0520 62° Northeast 522 601 33,000  Level FlightAware ADS-B
Wed 12:49:55 AM 43.5870 -65.9320 62° Northeast 523 602 33,000  Level FlightAware ADS-B
Wed 12:50:35 AM 43.6310 -65.8140 63° Northeast 523 602 33,000  Level FlightAware ADS-B
Wed 12:51:15 AM 43.6760 -65.6940 63° Northeast 525 604 33,000  Level FlightAware ADS-B
Wed 12:52:01 AM 43.7270 -65.5570 63° Northeast 526 605 33,000 424 Level FlightAware ADS-B
Wed 12:52:40 AM 43.7710 -65.4400 62° Northeast 526 605 33,600 706 Climbing FlightAware ADS-B
Wed 12:53:26 AM 43.8210 -65.3040 63° Northeast 519 597 34,000 282 Climbing FlightAware ADS-B
Wed 12:54:05 AM 43.8650 -65.1860 63° Northeast 516 594 34,000  Level FlightAware ADS-B
Wed 12:54:46 AM 43.9100 -65.0650 63° Northeast 514 592 34,000  Level FlightAware ADS-B
Wed 12:55:31 AM 43.9580 -64.9330 63° Northeast 514 592 34,000  Level FlightAware ADS-B
Wed 12:56:10 AM 44.0020 -64.8130 63° Northeast 513 590 34,000  Level FlightAware ADS-B
Wed 12:56:56 AM 44.0490 -64.6830 63° Northeast 514 592 34,000  Level FlightAware ADS-B
Wed 12:57:30 AM 44.0830 -64.5880 63° Northeast 514 592 34,000  Level FlightAware ADS-B
Wed 12:58:21 AM 44.1410 -64.4270 63° Northeast 516 594 34,000  Level FlightAware ADS-B
Wed 12:59:01 AM 44.1780 -64.3230 64° Northeast 514 592 34,000  Level FlightAware ADS-B
Wed 12:59:46 AM 44.2290 -64.1800 63° Northeast 514 592 34,000  Level FlightAware ADS-B
Wed 01:00:24 AM 44.2700 -64.0640 64° Northeast 515 593 34,000  Level FlightAware ADS-B
Wed 01:01:07 AM 44.3160 -63.9360 63° Northeast 514 592 34,000  Level FlightAware ADS-B
Wed 01:01:49 AM 44.3590 -63.8120 64° Northeast 513 590 34,000  Level FlightAware ADS-B
Wed 01:02:25 AM 44.3960 -63.7080 64° Northeast 513 590 34,000  Level FlightAware ADS-B
Wed 01:03:27 AM 44.4600 -63.5250 64° Northeast 513 590 34,000  Level FlightAware ADS-B
Wed 01:04:08 AM 44.5050 -63.3940 64° Northeast 512 589 34,000  Level FlightAware ADS-B
Wed 01:05:03 AM 44.5590 -63.2370 64° Northeast 509 586 34,000  Level FlightAware ADS-B
Wed 01:05:43 AM 44.6000 -63.1190 64° Northeast 507 583 34,000  Level FlightAware ADS-B
Wed 01:06:23 AM 44.6390 -63.0050 64° Northeast 504 580 34,000  Level FlightAware ADS-B
Wed 01:07:12 AM 44.6900 -62.8530 65° Northeast 501 577 34,000  Level FlightAware ADS-B
Wed 01:07:54 AM 44.7270 -62.7450 64° Northeast 499 574 34,000  Level FlightAware ADS-B
Wed 01:08:37 AM 44.7710 -62.6140 65° Northeast 499 574 34,000  Level FlightAware ADS-B
Wed 01:09:15 AM 44.8100 -62.4980 65° Northeast 496 571 34,000  Level FlightAware ADS-B
Wed 01:09:57 AM 44.8460 -62.3890 65° Northeast 496 571 34,000  Level FlightAware ADS-B
Wed 01:10:34 AM 44.8830 -62.2790 65° Northeast 496 571 34,000  Level FlightAware ADS-B
Wed 01:11:26 AM 44.9250 -62.1490 65° Northeast 496 571 34,000  Level FlightAware ADS-B
Wed 01:12:02 AM 44.9550 -62.0590 65° Northeast 496 571 34,000  Level FlightAware ADS-B
Wed 01:12:50 AM 44.9950 -61.9390 65° Northeast 496 571 34,000  Level FlightAware ADS-B
Wed 01:13:27 AM 45.0250 -61.8470 65° Northeast 496 571 34,000  Level FlightAware ADS-B
Wed 01:14:15 AM 45.0650 -61.7260 65° Northeast 496 571 34,000  Level FlightAware ADS-B
Wed 01:14:51 AM 45.0940 -61.6360 65° Northeast 496 571 34,000  Level FlightAware ADS-B
Wed 01:15:37 AM 45.1320 -61.5210 65° Northeast 496 571 34,000  Level FlightAware ADS-B
Wed 01:16:13 AM 45.1620 -61.4310 65° Northeast 496 571 34,000  Level FlightAware ADS-B
Wed 01:16:53 AM 45.2520 -61.1390 66° East 497 572 34,000  Level FlightAware ADS-B
Wed 01:17:44 AM 45.3010 -60.9850 66° East 496 571 34,000  Level FlightAware ADS-B
Wed 01:18:24 AM 45.3380 -60.8660 66° East 495 570 34,000  Level FlightAware ADS-B
Wed 01:19:08 AM 45.3800 -60.7330 66° East 493 567 34,000  Level FlightAware ADS-B
Wed 01:19:48 AM 45.4170 -60.6150 66° East 491 565 34,000  Level FlightAware ADS-B
Wed 01:20:32 AM 45.4570 -60.4840 66° East 492 566 34,000  Level FlightAware ADS-B
Wed 01:21:12 AM 45.4930 -60.3680 66° East 490 564 34,000  Level FlightAware ADS-B
Wed 01:21:52 AM 45.5300 -60.2480 66° East 490 564 34,000  Level FlightAware ADS-B
Wed 01:22:36 AM 45.5690 -60.1190 67° East 492 566 34,000  Level FlightAware ADS-B
Wed 01:23:16 AM 45.6060 -59.9970 67° East 493 567 34,000  Level FlightAware ADS-B
Wed 01:24:00 AM 45.6460 -59.8660 66° East 494 568 34,000  Level FlightAware ADS-B
Wed 01:24:42 AM 45.6830 -59.7420 67° East 493 567 34,000  Level FlightAware ADS-B
Wed 01:25:22 AM 45.7190 -59.6210 67° East 493 567 34,000  Level FlightAware ADS-B
Wed 01:26:06 AM 45.7580 -59.4880 67° East 492 566 34,000  Level FlightAware ADS-B
Wed 01:26:48 AM 45.7960 -59.3620 67° East 491 565 34,000  Level FlightAware ADS-B
Wed 01:27:32 AM 45.8340 -59.2320 67° East 490 564 34,000  Level FlightAware ADS-B
Wed 01:28:12 AM 45.8690 -59.1110 67° East 491 565 34,000  Level FlightAware ADS-B
Wed 01:28:56 AM 45.9080 -58.9790 67° East 493 567 34,000  Level FlightAware ADS-B
Wed 01:29:36 AM 45.9430 -58.8570 68° East 494 568 34,000  Level FlightAware ADS-B
Wed 01:30:16 AM 45.9770 -58.7390 67° East 496 571 34,000  Level FlightAware ADS-B
Wed 01:31:02 AM 46.0170 -58.5980 68° East 497 572 34,000  Level FlightAware ADS-B
Wed 01:31:42 AM 46.0520 -58.4760 68° East 498 573 34,000  Level FlightAware ADS-B
Wed 01:32:22 AM 46.0880 -58.3490 68° East 499 574 34,000  Level FlightAware ADS-B
Wed 01:33:04 AM 46.1240 -58.2210 68° East 499 574 34,000  Level FlightAware ADS-B
Wed 01:33:46 AM 46.1590 -58.0970 68° East 498 573 34,000  Level FlightAware ADS-B
Wed 01:34:30 AM 46.1970 -57.9570 69° East 497 572 34,000  Level FlightAware ADS-B
Wed 01:35:24 AM 46.2400 -57.8040 68° East 496 571 34,000  Level FlightAware ADS-B
Wed 01:36:12 AM 46.2750 -57.6790 68° East 496 571 34,000  Level FlightAware ADS-B
Wed 01:36:48 AM 46.3010 -57.5850 68° East 496 571 34,000  Level FlightAware ADS-B
Wed 01:37:34 AM 46.3520 -57.3850 70° East 502 578 34,000  Level FlightAware ADS-B
Wed 01:38:24 AM 46.3890 -57.2420 69° East 502 578 34,000  Level FlightAware ADS-B
Wed 01:39:12 AM 46.4310 -57.0760 70° East 503 579 34,000  Level FlightAware ADS-B
Wed 01:39:49 AM 46.4600 -56.9630 70° East 504 580 34,000  Level FlightAware ADS-B
Wed 01:40:34 AM 46.4950 -56.8240 70° East 504 580 34,000  Level FlightAware ADS-B
Wed 01:41:14 AM 46.5300 -56.6880 69° East 505 581 34,000  Level FlightAware ADS-B
Wed 01:41:59 AM 46.5660 -56.5450 70° East 506 582 34,000  Level FlightAware ADS-B
Wed 01:42:40 AM 46.5980 -56.4180 70° East 505 581 34,000  Level FlightAware ADS-B
Wed 01:43:21 AM 46.6300 -56.2880 70° East 506 582 34,000  Level FlightAware ADS-B
Wed 01:44:06 AM 46.6660 -56.1410 70° East 505 581 34,000  Level FlightAware ADS-B
Wed 01:44:47 AM 46.6980 -56.0100 70° East 504 580 34,000  Level FlightAware ADS-B
Wed 01:45:30 AM 46.7320 -55.8710 70° East 503 579 34,000  Level FlightAware ADS-B
Wed 01:46:11 AM 46.7630 -55.7400 71° East 503 579 34,000  Level FlightAware ADS-B
Wed 01:46:52 AM 46.7950 -55.6100 70° East 503 579 34,000  Level FlightAware ADS-B
Wed 01:47:36 AM 46.8290 -55.4660 71° East 504 580 34,000  Level FlightAware ADS-B
Wed 01:48:16 AM 46.8590 -55.3390 71° East 506 582 34,000  Level FlightAware ADS-B
Wed 01:49:00 AM 46.8930 -55.1960 71° East 507 583 34,000  Level FlightAware ADS-B
Wed 01:49:40 AM 46.9230 -55.0660 71° East 508 585 34,000  Level FlightAware ADS-B
Wed 01:50:24 AM 46.9570 -54.9220 71° East 508 585 34,000  Level FlightAware ADS-B
Wed 01:51:04 AM 46.9870 -54.7920 71° East 509 586 34,000  Level FlightAware ADS-B
Wed 01:51:44 AM 47.0170 -54.6590 72° East 511 588 34,000  Level FlightAware ADS-B
Wed 01:52:28 AM 47.0500 -54.5150 71° East 512 589 34,000  Level FlightAware ADS-B
Wed 01:53:10 AM 47.0810 -54.3790 71° East 513 590 34,000  Level FlightAware ADS-B
Wed 01:53:42 AM 47.1050 -54.2730 72° East 514 592 34,000  Level FlightAware ADS-B
Wed 01:54:22 AM 47.1350 -54.1390 72° East 515 593 34,000  Level FlightAware ADS-B
Wed 01:55:06 AM 47.1670 -53.9940 72° East 514 592 34,000  Level FlightAware ADS-B
Wed 01:55:46 AM 47.1970 -53.8600 72° East 513 590 34,000  Level FlightAware ADS-B
Wed 01:56:29 AM 47.2280 -53.7200 72° East 512 589 34,000  Level FlightAware ADS-B
Wed 01:57:10 AM 47.2580 -53.5830 72° East 511 588 34,000  Level FlightAware ADS-B
Wed 01:57:54 AM 47.2890 -53.4380 72° East 512 589 34,000  Level FlightAware ADS-B
Wed 01:58:34 AM 47.3180 -53.3060 72° East 513 590 34,000  Level FlightAware ADS-B
Wed 01:59:14 AM 47.3470 -53.1700 72° East 516 594 34,000  Level FlightAware ADS-B
Wed 01:59:58 AM 47.3780 -53.0220 73° East 517 595 34,000  Level FlightAware ADS-B
Wed 02:00:38 AM 47.4070 -52.8880 72° East 519 597 34,000  Level FlightAware ADS-B
Wed 02:01:24 AM 47.4400 -52.7300 73° East 519 597 34,000  Level FlightAware ADS-B
Wed 02:02:04 AM 47.4680 -52.5940 73° East 519 597 34,000  Level FlightAware ADS-B
Wed 02:02:48 AM 47.4980 -52.4490 73° East 520 598 34,000  Level FlightAware ADS-B
Wed 02:03:28 AM 47.5270 -52.3100 73° East 521 600 34,000  Level FlightAware ADS-B
Wed 02:04:12 AM 47.5570 -52.1600 73° East 522 601 34,000  Level FlightAware ADS-B
Wed 02:04:50 AM 47.5830 -52.0310 73° East 522 601 34,000  Level FlightAware ADS-B
Wed 02:05:36 AM 47.6150 -51.8750 73° East 522 601 34,000  Level FlightAware ADS-B
Wed 02:06:16 AM 47.6430 -51.7350 73° East 523 602 34,000  Level FlightAware ADS-B
Wed 02:06:58 AM 47.6700 -51.5950 74° East 524 603 34,000  Level FlightAware ADS-B
Wed 02:07:36 AM 47.6960 -51.4670 73° East 524 603 34,000  Level FlightAware ADS-B
Wed 02:08:32 AM 47.7330 -51.2790 74° East 524 603 34,000  Level FlightAware ADS-B
Wed 02:09:20 AM 47.7620 -51.1390 73° East 524 603 34,000  Level FlightAware ADS-B
Wed 02:09:57 AM 47.7840 -51.0300 73° East 524 603 34,000  Level FlightAware ADS-B
Wed 02:10:45 AM 47.8130 -50.8890 73° East 524 603 34,000  Level FlightAware ADS-B
Wed 02:11:25 AM 47.8370 -50.7720 73° East 524 603 34,000  Level FlightAware ADS-B
Wed 02:12:14 AM 47.8670 -50.6280 73° East 524 603 34,000  Level FlightAware ADS-B
Wed 02:12:50 AM 47.8890 -50.5220 73° East 524 603 34,000  Level FlightAware ADS-B
Wed 02:13:38 AM 47.9170 -50.3810 73° East 524 603 34,000  Level FlightAware ADS-B
Wed 02:14:14 AM 47.9390 -50.2750 73° East 524 603 34,000  Level FlightAware ADS-B
Wed 02:15:00 AM 48.0000 -50.0000 69° East 548 631 34,000  Level ETMS Enhanced Traffic Management System
Wed 02:15:02 AM 47.9680 -50.1340 73° East 524 603 34,000  Level FlightAware ADS-B
Wed 02:15:24 AM 48.0167 -49.7667 69° East 530 610 34,000  Level Gander Center
Wed 02:15:38 AM 47.9900 -50.0280 73° East 524 603 34,000  Level FlightAware ADS-B
Wed 02:16:09 AM 48.0667 -49.6000 66° East 530 610 34,000  Level Gander Center
Wed 02:16:26 AM 48.0190 -49.8870 73° East 524 603 34,000  Level FlightAware ADS-B
Wed 02:17:03 AM 48.0410 -49.7780 73° East 524 603 34,000  Level FlightAware ADS-B
Wed 02:17:09 AM 48.1167 -49.4167 68° East 530 610 34,000  Level Gander Center
Wed 02:17:51 AM 48.0700 -49.6360 73° East 524 603 34,000  Level FlightAware ADS-B
Wed 02:19:00 AM 48.1980 -49.0885 70° East  Level FlightAware Approximate
Wed 02:26:00 AM 48.5425 -47.6408 70° East  Level FlightAware Approximate
Wed 02:27:00 AM 48.5903 -47.4324 71° East  Level FlightAware Approximate
Wed 02:28:00 AM 48.6376 -47.2236 71° East  Level FlightAware Approximate
Wed 02:29:00 AM 48.6846 -47.0144 71° East  Level FlightAware Approximate
Wed 02:30:00 AM 48.7312 -46.8048 71° East  Level FlightAware Approximate
Wed 02:31:00 AM 48.7774 -46.5949 71° East  Level FlightAware Approximate
Wed 02:32:00 AM 48.8233 -46.3845 72° East  Level FlightAware Approximate
Wed 02:33:00 AM 48.8687 -46.1738 72° East  Level FlightAware Approximate
Wed 02:34:00 AM 48.9138 -45.9627 72° East  Level FlightAware Approximate
Wed 02:35:00 AM 48.9585 -45.7512 72° East  Level FlightAware Approximate
Wed 02:36:00 AM 49.0028 -45.5393 72° East  Level FlightAware Approximate
Wed 02:37:00 AM 49.0467 -45.3270 72° East  Level FlightAware Approximate
Wed 02:38:00 AM 49.0902 -45.1144 73° East  Level FlightAware Approximate
Wed 02:39:00 AM 49.1333 -44.9014 73° East  Level FlightAware Approximate
Wed 02:40:00 AM 49.1761 -44.6881 73° East  Level FlightAware Approximate
Wed 02:41:00 AM 49.2184 -44.4743 73° East  Level FlightAware Approximate
Wed 02:42:00 AM 49.2603 -44.2603 73° East  Level FlightAware Approximate
Wed 02:43:00 AM 49.3019 -44.0458 73° East  Level FlightAware Approximate
Wed 02:44:00 AM 49.3430 -43.8310 74° East  Level FlightAware Approximate
Wed 02:45:00 AM 49.3838 -43.6158 74° East  Level FlightAware Approximate
Wed 02:46:00 AM 49.4241 -43.4003 74° East  Level FlightAware Approximate
Wed 02:47:00 AM 49.4641 -43.1844 74° East  Level FlightAware Approximate
Wed 02:48:00 AM 49.5036 -42.9682 74° East  Level FlightAware Approximate
Wed 02:49:00 AM 49.5428 -42.7516 74° East  Level FlightAware Approximate
Wed 02:50:00 AM 49.5815 -42.5346 75° East  Level FlightAware Approximate
Wed 02:51:00 AM 49.6199 -42.3174 75° East  Level FlightAware Approximate
Wed 02:52:00 AM 49.6578 -42.0998 75° East  Level FlightAware Approximate
Wed 02:53:00 AM 49.6953 -41.8818 75° East  Level FlightAware Approximate
Wed 02:54:00 AM 49.7324 -41.6635 75° East  Level FlightAware Approximate
Wed 02:55:00 AM 49.7691 -41.4449 75° East  Level FlightAware Approximate
Wed 02:56:00 AM 49.8054 -41.2260 76° East  Level FlightAware Approximate
Wed 02:57:00 AM 49.8413 -41.0067 76° East  Level FlightAware Approximate
Wed 02:58:00 AM 49.8767 -40.7871 76° East  Level FlightAware Approximate
Wed 02:59:00 AM 49.9118 -40.5672 76° East  Level FlightAware Approximate
Wed 03:00:00 AM 49.9464 -40.3469 76° East  Level FlightAware Approximate
Wed 03:01:00 AM 49.9806 -40.1264 76° East  Level FlightAware Approximate
Wed 03:02:00 AM 50.0137 -39.9057 77° East  Level FlightAware Approximate
Wed 03:03:00 AM 50.0456 -39.6840 77° East  Level FlightAware Approximate
Wed 03:04:00 AM 50.0770 -39.4620 77° East  Level FlightAware Approximate
Wed 03:05:00 AM 50.1081 -39.2397 78° East  Level FlightAware Approximate
Wed 03:06:00 AM 50.1387 -39.0171 78° East  Level FlightAware Approximate
Wed 03:07:00 AM 50.1689 -38.7943 78° East  Level FlightAware Approximate
Wed 03:08:00 AM 50.1986 -38.5712 78° East  Level FlightAware Approximate
Wed 03:09:00 AM 50.2280 -38.3478 78° East  Level FlightAware Approximate
Wed 03:10:00 AM 50.2569 -38.1241 78° East  Level FlightAware Approximate
Wed 03:11:00 AM 50.2853 -37.9001 79° East  Level FlightAware Approximate
Wed 03:12:00 AM 50.3134 -37.6759 79° East  Level FlightAware Approximate
Wed 03:13:00 AM 50.3410 -37.4514 79° East  Level FlightAware Approximate
Wed 03:14:00 AM 50.3681 -37.2267 79° East  Level FlightAware Approximate
Wed 03:15:00 AM 50.3949 -37.0017 79° East  Level FlightAware Approximate
Wed 03:16:00 AM 50.4212 -36.7765 80° East  Level FlightAware Approximate
Wed 03:17:00 AM 50.4470 -36.5510 80° East  Level FlightAware Approximate
Wed 03:18:00 AM 50.4725 -36.3252 80° East  Level FlightAware Approximate
Wed 03:19:00 AM 50.4975 -36.0993 80° East  Level FlightAware Approximate
Wed 03:20:00 AM 50.5220 -35.8731 80° East  Level FlightAware Approximate
Wed 03:21:00 AM 50.5462 -35.6466 80° East  Level FlightAware Approximate
Wed 03:22:00 AM 50.5698 -35.4199 81° East  Level FlightAware Approximate
Wed 03:23:00 AM 50.5931 -35.1930 81° East  Level FlightAware Approximate
Wed 03:24:00 AM 50.6159 -34.9659 81° East  Level FlightAware Approximate
Wed 03:25:00 AM 50.6382 -34.7386 81° East  Level FlightAware Approximate
Wed 03:26:00 AM 50.6601 -34.5110 81° East  Level FlightAware Approximate
Wed 03:27:00 AM 50.6816 -34.2832 81° East  Level FlightAware Approximate
Wed 03:28:00 AM 50.7026 -34.0553 82° East  Level FlightAware Approximate
Wed 03:29:00 AM 50.7232 -33.8271 82° East  Level FlightAware Approximate
Wed 03:30:00 AM 50.7434 -33.5987 82° East  Level FlightAware Approximate
Wed 03:31:00 AM 50.7630 -33.3702 82° East  Level FlightAware Approximate
Wed 03:32:00 AM 50.7823 -33.1414 82° East  Level FlightAware Approximate
Wed 03:33:00 AM 50.8011 -32.9124 83° East  Level FlightAware Approximate
Wed 03:34:00 AM 50.8194 -32.6833 83° East  Level FlightAware Approximate
Wed 03:35:00 AM 50.8373 -32.4540 83° East  Level FlightAware Approximate
Wed 03:36:00 AM 50.8548 -32.2245 83° East  Level FlightAware Approximate
Wed 03:37:00 AM 50.8718 -31.9949 83° East  Level FlightAware Approximate
Wed 03:38:00 AM 50.8883 -31.7651 83° East  Level FlightAware Approximate
Wed 03:39:00 AM 50.9044 -31.5351 84° East  Level FlightAware Approximate
Wed 03:40:00 AM 50.9200 -31.3050 84° East  Level FlightAware Approximate
Wed 03:41:00 AM 50.9352 -31.0747 84° East  Level FlightAware Approximate
Wed 03:42:00 AM 50.9500 -30.8443 84° East  Level FlightAware Approximate
Wed 03:43:00 AM 50.9642 -30.6137 84° East  Level FlightAware Approximate
Wed 03:44:00 AM 50.9781 -30.3830 84° East  Level FlightAware Approximate
Wed 03:44:00 AM 51.0000 -30.0000 86° East 539 620 34,000  Level ETMS Enhanced Traffic Management System
Wed 03:45:00 AM 50.9914 -30.1521 85° East  Level FlightAware Approximate
Wed 03:46:00 AM 51.0031 -29.9280 86° East  Level FlightAware Approximate
Wed 03:47:00 AM 51.0123 -29.7036 86° East  Level FlightAware Approximate
Wed 03:48:00 AM 51.0211 -29.4790 86° East  Level FlightAware Approximate
Wed 03:49:00 AM 51.0295 -29.2544 87° East  Level FlightAware Approximate
Wed 03:50:00 AM 51.0719 -27.8601 88° East 539 620 34,000  Level FlightAware Transoceanic
Wed 03:51:00 AM 51.0775 -27.6220 88° East 539 620 34,000  Level FlightAware Transoceanic
Wed 03:52:00 AM 51.0826 -27.3838 88° East 539 620 34,000  Level FlightAware Transoceanic
Wed 03:53:00 AM 51.0872 -27.1455 88° East 539 620 34,000  Level FlightAware Transoceanic
Wed 03:54:00 AM 51.0913 -26.9073 89° East 539 620 34,000  Level FlightAware Transoceanic
Wed 03:55:00 AM 51.0949 -26.6689 89° East 539 620 34,000  Level FlightAware Transoceanic
Wed 03:56:00 AM 51.0981 -26.4306 89° East 539 620 34,000  Level FlightAware Transoceanic
Wed 03:57:00 AM 51.1007 -26.1922 89° East 539 620 34,000  Level FlightAware Transoceanic
Wed 03:58:00 AM 51.1029 -25.9538 89° East 539 620 34,000  Level FlightAware Transoceanic
Wed 03:59:00 AM 51.1046 -25.7154 89° East 539 620 34,000  Level FlightAware Transoceanic
Wed 04:00:00 AM 51.1058 -25.4769 90° East 539 620 34,000  Level FlightAware Transoceanic
Wed 04:01:00 AM 51.1065 -25.2385 90° East 539 620 34,000  Level FlightAware Transoceanic
Wed 04:02:00 AM 51.1068 -25.0000 90° East 539 620 34,000  Level FlightAware Transoceanic
Wed 04:03:00 AM 51.1065 -24.7615 90° East 539 620 34,000  Level FlightAware Transoceanic
Wed 04:04:00 AM 51.1058 -24.5231 90° East 539 620 34,000  Level FlightAware Transoceanic
Wed 04:05:00 AM 51.1046 -24.2846 91° East 539 620 34,000  Level FlightAware Transoceanic
Wed 04:06:00 AM 51.1029 -24.0462 91° East 539 620 34,000  Level FlightAware Transoceanic
Wed 04:07:00 AM 51.1007 -23.8078 91° East 539 620 34,000  Level FlightAware Transoceanic
Wed 04:08:00 AM 51.0981 -23.5694 91° East 539 620 34,000  Level FlightAware Transoceanic
Wed 04:09:00 AM 51.0949 -23.3311 91° East 539 620 34,000  Level FlightAware Transoceanic
Wed 04:10:00 AM 51.0913 -23.0927 91° East 539 620 34,000  Level FlightAware Transoceanic
Wed 04:11:00 AM 51.0872 -22.8545 92° East 539 620 34,000  Level FlightAware Transoceanic
Wed 04:12:00 AM 51.0826 -22.6162 92° East 539 620 34,000  Level FlightAware Transoceanic
Wed 04:13:00 AM 51.0775 -22.3780 92° East 539 620 34,000  Level FlightAware Transoceanic
Wed 04:14:00 AM 51.0719 -22.1399 92° East 539 620 34,000  Level FlightAware Transoceanic
Wed 04:15:00 AM 51.0658 -21.9018 92° East 539 620 34,000  Level FlightAware Transoceanic
Wed 04:16:00 AM 51.0593 -21.6638 93° East 539 620 34,000  Level FlightAware Transoceanic
Wed 04:17:00 AM 51.0523 -21.4259 93° East 539 620 34,000  Level FlightAware Transoceanic
Wed 04:18:00 AM 51.0448 -21.1880 93° East 539 620 34,000  Level FlightAware Transoceanic
Wed 04:19:00 AM 51.0368 -20.9502 93° East 539 620 34,000  Level FlightAware Transoceanic
Wed 04:20:00 AM 51.0283 -20.7125 93° East 539 620 34,000  Level FlightAware Transoceanic
Wed 04:21:00 AM 51.0193 -20.4749 94° East 539 620 34,000  Level FlightAware Transoceanic
Wed 04:22:00 AM 51.0099 -20.2374 94° East 539 620 34,000 23 Level FlightAware Transoceanic
Wed 04:23:00 AM 51.0006 -20.0130 94° East  Level FlightAware Approximate
Wed 04:24:00 AM 50.9907 -19.7887 94° East  Level FlightAware Approximate
Wed 04:25:00 AM 50.9784 -19.8041 100° East  Level FlightAware Approximate
Wed 04:26:00 AM 50.9535 -19.5829 100° East  Level FlightAware Approximate
Wed 04:27:00 AM 50.9282 -19.3619 100° East  Level FlightAware Approximate
Wed 04:28:00 AM 50.9025 -19.1411 100° East  Level FlightAware Approximate
Wed 04:29:00 AM 50.8764 -18.9206 101° East  Level FlightAware Approximate
Wed 04:30:00 AM 50.8499 -18.7003 101° East  Level FlightAware Approximate
Wed 04:31:00 AM 50.8229 -18.4803 101° East  Level FlightAware Approximate
Wed 04:32:00 AM 50.7956 -18.2606 101° East  Level FlightAware Approximate
Wed 04:33:00 AM 50.7678 -18.0411 101° East  Level FlightAware Approximate
Wed 04:34:00 AM 50.7396 -17.8218 101° East  Level FlightAware Approximate
Wed 04:35:00 AM 50.7110 -17.6029 102° East  Level FlightAware Approximate
Wed 04:36:00 AM 50.6820 -17.3842 102° East  Level FlightAware Approximate
Wed 04:37:00 AM 50.6526 -17.1657 102° East  Level FlightAware Approximate
Wed 04:38:00 AM 50.6228 -16.9476 102° East  Level FlightAware Approximate
Wed 04:39:00 AM 50.5925 -16.7297 102° East  Level FlightAware Approximate
Wed 04:40:00 AM 50.5619 -16.5121 102° East  Level FlightAware Approximate
Wed 04:41:00 AM 50.5309 -16.2948 103° East  Level FlightAware Approximate
Wed 04:42:00 AM 50.4994 -16.0777 103° East  Level FlightAware Approximate
Wed 04:43:00 AM 50.4676 -15.8610 103° East  Level FlightAware Approximate
Wed 04:44:00 AM 50.4353 -15.6446 103° East  Level FlightAware Approximate
Wed 04:45:00 AM 50.4027 -15.4284 103° East  Level FlightAware Approximate
Wed 04:46:00 AM 50.3697 -15.2126 103° East  Level FlightAware Approximate
Wed 04:47:00 AM 50.3362 -14.9971 104° East  Level FlightAware Approximate
Wed 04:48:00 AM 50.3024 -14.7818 104° East  Level FlightAware Approximate
Wed 04:49:00 AM 50.2681 -14.5669 104° East  Level FlightAware Approximate
Wed 04:50:00 AM 50.2335 -14.3523 104° East  Level FlightAware Approximate
Wed 04:51:00 AM 50.1985 -14.1379 104° East  Level FlightAware Approximate
Wed 04:52:00 AM 50.1630 -13.9240 104° East  Level FlightAware Approximate
Wed 04:53:00 AM 50.1272 -13.7103 105° East  Level FlightAware Approximate
Wed 04:54:00 AM 50.0910 -13.4969 105° East  Level FlightAware Approximate
Wed 04:55:00 AM 50.0544 -13.2839 105° East  Level FlightAware Approximate
Wed 04:56:00 AM 50.0174 -13.0712 105° East  Level FlightAware Approximate
Wed 04:57:00 AM 49.9800 -12.8588 105° East  Level FlightAware Approximate
Wed 04:58:00 AM 49.9423 -12.6468 105° East  Level FlightAware Approximate
Wed 04:59:00 AM 49.9041 -12.4351 106° East  Level FlightAware Approximate
Wed 05:00:00 AM 49.8656 -12.2237 106° East  Level FlightAware Approximate
Wed 05:01:00 AM 49.8267 -12.0127 106° East  Level FlightAware Approximate
Wed 05:02:00 AM 49.7874 -11.8020 106° East  Level FlightAware Approximate
Wed 05:03:00 AM 49.7477 -11.5917 106° East  Level FlightAware Approximate
Wed 05:04:00 AM 49.7076 -11.3816 106° East  Level FlightAware Approximate
Wed 05:05:00 AM 49.6672 -11.1720 107° East  Level FlightAware Approximate
Wed 05:05:22 AM 49.9290 -10.7710 107° East 550 633 35,000  Level FlightAware ADS-B
Wed 05:06:00 AM 49.6264 -10.9627 107° East  Level FlightAware Approximate
Wed 05:06:04 AM 49.8850 -10.6340 116° Southeast 551 634 35,000  Level FlightAware ADS-B
Wed 05:06:46 AM 49.8310 -10.4730 117° Southeast 556 640 35,000  Level FlightAware ADS-B
Wed 05:07:21 AM 49.7950 -10.3630 117° Southeast 557 641 35,000  Level FlightAware ADS-B
Wed 05:08:09 AM 49.7470 -10.2180 117° Southeast 557 641 35,000  Level FlightAware ADS-B
Wed 05:08:52 AM 49.6820 -10.0270 118° Southeast 565 650 35,000  Level FlightAware ADS-B
Wed 05:09:32 AM 49.6330 -9.8810 117° Southeast 567 652 35,000  Level FlightAware ADS-B
Wed 05:10:12 AM 49.5850 -9.7380 117° Southeast 568 654 35,000  Level FlightAware ADS-B
Wed 05:10:54 AM 49.5340 -9.5880 118° Southeast 567 652 35,000  Level FlightAware ADS-B
Wed 05:11:32 AM 49.4880 -9.4550 118° Southeast 559 643 35,000  Level FlightAware ADS-B
Wed 05:12:19 AM 49.4300 -9.2880 118° Southeast 554 638 35,000  Level FlightAware ADS-B
Wed 05:12:56 AM 49.3900 -9.1710 118° Southeast 552 635 35,000  Level FlightAware ADS-B
Wed 05:13:31 AM 49.3498 -8.9770 118° Southeast 504 580 35,000  Level FlightAware UK
Wed 05:13:38 AM 49.3420 -9.0330 118° Southeast 549 632 35,000  Level FlightAware ADS-B
Wed 05:13:55 AM 49.3210 -8.8952 118° Southeast 502 578 35,000  Level FlightAware UK
Wed 05:14:13 AM 49.2995 -8.8337 118° Southeast 502 578 35,000  Level FlightAware UK
Wed 05:14:22 AM 49.2840 -8.8670 118° Southeast 546 628 35,000  Level FlightAware ADS-B
Wed 05:14:37 AM 49.2708 -8.7521 118° Southeast 502 578 35,000  Level FlightAware UK
Wed 05:14:55 AM 49.2493 -8.6909 118° Southeast 504 580 35,000  Level FlightAware UK
Wed 05:15:02 AM 49.2370 -8.7320 118° Southeast 544 626 35,000  Level FlightAware ADS-B
Wed 05:15:19 AM 49.2205 -8.6099 118° Southeast 504 580 35,000  Level FlightAware UK
Wed 05:15:37 AM 49.2009 -8.5481 116° Southeast 500 575 35,000  Level FlightAware UK
Wed 05:15:48 AM 49.1920 -8.5710 116° Southeast 528 608 35,000  Level FlightAware ADS-B
Wed 05:16:07 AM 49.1827 -8.4399 116° Southeast 498 573 35,000  Level FlightAware UK
Wed 05:16:25 AM 49.1696 -8.3763 107° East 498 573 35,000  Level FlightAware UK
Wed 05:16:28 AM 49.1630 -8.4270 107° East 529 609 35,000  Level FlightAware ADS-B
Wed 05:16:43 AM 49.1564 -8.3123 107° East 500 575 35,000  Level FlightAware UK
Wed 05:17:01 AM 49.1435 -8.2482 107° East 500 575 35,000  Level FlightAware UK
Wed 05:17:12 AM 49.1330 -8.2720 107° East 529 609 35,000  Level FlightAware ADS-B
Wed 05:17:31 AM 49.1222 -8.1415 107° East 500 575 35,000  Level FlightAware UK
Wed 05:17:49 AM 49.1095 -8.0774 107° East 504 580 35,000  Level FlightAware UK
Wed 05:17:52 AM 49.1050 -8.1310 107° East 528 608 35,000  Level FlightAware ADS-B
Wed 05:18:07 AM 49.0968 -8.0134 107° East 506 582 35,000  Level FlightAware UK
Wed 05:18:25 AM 49.0840 -7.9487 107° East 508 585 35,000  Level FlightAware UK
Wed 05:18:36 AM 49.0750 -7.9740 107° East 522 601 35,000  Level FlightAware ADS-B
Wed 05:18:55 AM 49.0708 -7.8401 107° East 512 589 35,000  Level FlightAware UK
Wed 05:19:13 AM 49.0653 -7.7761 97° East 508 585 35,000  Level FlightAware UK
Wed 05:19:16 AM 49.0620 -7.8280 97° East 513 590 35,000  Level FlightAware ADS-B
Wed 05:19:31 AM 49.0599 -7.7121 97° East 506 582 35,000  Level FlightAware UK
Wed 05:19:49 AM 49.0547 -7.6480 97° East 506 582 35,000  Level FlightAware UK
Wed 05:20:00 AM 49.0500 -7.6730 97° East 511 588 35,000  Level FlightAware ADS-B
Wed 05:20:19 AM 49.0458 -7.5415 97° East 508 585 35,000  Level FlightAware UK
Wed 05:20:37 AM 49.0403 -7.4776 97° East 508 585 35,000  Level FlightAware UK
Wed 05:20:40 AM 49.0380 -7.5250 97° East 508 585 35,000  Level FlightAware ADS-B
Wed 05:20:55 AM 49.0349 -7.4138 97° East 504 580 35,000  Level FlightAware UK
Wed 05:21:13 AM 49.0296 -7.3503 97° East 504 580 35,000  Level FlightAware UK
Wed 05:21:24 AM 49.0260 -7.3750 97° East 507 583 35,000  Level FlightAware ADS-B
Wed 05:21:43 AM 49.0208 -7.2445 97° East 504 580 35,000  Level FlightAware UK
Wed 05:22:01 AM 49.0158 -7.1810 97° East 506 582 35,000  Level FlightAware UK
Wed 05:22:04 AM 49.0150 -7.2300 97° East 506 582 35,000  Level FlightAware ADS-B
Wed 05:22:19 AM 49.0109 -7.1177 97° East 504 580 35,000  Level FlightAware UK
Wed 05:22:37 AM 49.0059 -7.0544 97° East 500 575 35,000  Level FlightAware UK
Wed 05:22:48 AM 49.0020 -7.0730 97° East 505 581 35,000  Level FlightAware ADS-B
Wed 05:23:07 AM 48.9972 -6.9490 97° East 498 573 35,000  Level FlightAware UK
Wed 05:23:25 AM 48.9918 -6.8850 97° East 498 573 35,000  Level FlightAware UK
Wed 05:23:30 AM 48.9910 -6.9240 97° East 508 585 35,000  Level FlightAware ADS-B
Wed 05:23:49 AM 48.9851 -6.8006 97° East 500 575 35,000  Level FlightAware UK
Wed 05:24:07 AM 48.9802 -6.7369 97° East 498 573 35,000  Level FlightAware UK
Wed 05:24:10 AM 48.9800 -6.7810 97° East 510 587 35,000  Level FlightAware ADS-B
Wed 05:24:25 AM 48.9754 -6.6731 97° East 502 578 35,000  Level FlightAware UK
Wed 05:24:43 AM 48.9707 -6.6093 96° East 502 578 35,000  Level FlightAware UK
Wed 05:24:52 AM 48.9690 -6.6350 96° East 510 587 35,000  Level FlightAware ADS-B
Wed 05:25:07 AM 48.9642 -6.5241 96° East 502 578 35,000  Level FlightAware UK
Wed 05:25:25 AM 48.9594 -6.4602 97° East 502 578 35,000  Level FlightAware UK
Wed 05:25:34 AM 48.9590 -6.4840 97° East 509 586 35,000  Level FlightAware ADS-B
Wed 05:25:49 AM 48.9531 -6.3751 97° East 504 580 35,000  Level FlightAware UK
Wed 05:26:07 AM 48.9485 -6.3112 96° East 506 582 35,000  Level FlightAware UK
Wed 05:26:18 AM 48.9480 -6.3320 96° East 509 586 35,000  Level FlightAware ADS-B
Wed 05:26:37 AM 48.9407 -6.2050 96° East 502 578 35,000  Level FlightAware UK
Wed 05:26:55 AM 48.9360 -6.1412 96° East 506 582 35,000  Level FlightAware UK
Wed 05:26:58 AM 48.9380 -6.1910 96° East 508 585 35,000  Level FlightAware ADS-B
Wed 05:27:19 AM 48.9301 -6.0563 96° East 506 582 35,000  Level FlightAware UK
Wed 05:27:37 AM 48.9255 -5.9927 96° East 504 580 35,000  Level FlightAware UK
Wed 05:27:38 AM 48.9280 -6.0440 96° East 508 585 35,000  Level FlightAware ADS-B
Wed 05:27:55 AM 48.9205 -5.9293 96° East 504 580 35,000  Level FlightAware UK
Wed 05:28:13 AM 48.9157 -5.8658 97° East 504 580 35,000  Level FlightAware UK
Wed 05:28:22 AM 48.9170 -5.8880 97° East 507 583 35,000  Level FlightAware ADS-B
Wed 05:28:38 AM 48.9092 -5.7806 97° East 506 582 35,000  Level FlightAware UK
Wed 05:28:56 AM 48.9044 -5.7173 97° East 506 582 35,000  Level FlightAware UK
Wed 05:29:06 AM 48.9050 -5.7300 97° East 507 583 35,000  Level FlightAware ADS-B
Wed 05:29:26 AM 48.8963 -5.6118 97° East 506 582 35,000  Level FlightAware UK
Wed 05:29:44 AM 48.8917 -5.5485 96° East 506 582 35,000  Level FlightAware UK
Wed 05:29:46 AM 48.8950 -5.5890 96° East 505 581 35,000  Level FlightAware ADS-B
Wed 05:30:02 AM 48.8868 -5.4855 96° East 504 580 35,000  Level FlightAware UK
Wed 05:30:20 AM 48.8820 -5.4224 97° East 506 582 35,000  Level FlightAware UK
Wed 05:30:26 AM 48.8850 -5.4470 97° East 503 579 35,000  Level FlightAware ADS-B
Wed 05:30:44 AM 48.8759 -5.3386 97° East 504 580 35,000  Level FlightAware UK
Wed 05:30:58 AM 48.8720 -5.3400 97° East 512 589 35,000  Level FlightAware ADS-B
Wed 05:31:14 AM 48.8497 -5.2395 97° East 504 580 35,000  Level FlightAware UK
Wed 05:31:32 AM 48.8257 -5.1851 124° Southeast 506 582 35,000  Level FlightAware UK
Wed 05:31:32 AM 48.8310 -5.2320 124° Southeast 520 598 35,000  Level FlightAware ADS-B
Wed 05:31:50 AM 48.7983 -5.1337 124° Southeast 506 582 35,000  Level FlightAware UK
Wed 05:32:21 AM 48.7580 -5.0880 124° Southeast 520 598 35,000  Level FlightAware ADS-B
Wed 05:32:44 AM 48.7176 -4.9774 124° Southeast 506 582 35,000  Level FlightAware UK
Wed 05:33:02 AM 48.6990 -4.9720 124° Southeast 520 598 35,000  Level FlightAware ADS-B
Wed 05:33:26 AM 48.6562 -4.8570 124° Southeast 504 580 35,000  Level FlightAware UK
Wed 05:33:44 AM 48.6301 -4.8051 127° Southeast 504 580 35,000  Level FlightAware UK
Wed 05:33:47 AM 48.6330 -4.8390 127° Southeast 520 598 35,000  Level FlightAware ADS-B
Wed 05:34:20 AM 48.5776 -4.7005 127° Southeast 502 578 35,000  Level FlightAware UK
Wed 05:34:27 AM 48.5760 -4.7240 127° Southeast 521 600 35,000  Level FlightAware ADS-B
Wed 05:34:44 AM 48.5430 -4.6310 127° Southeast 504 580 35,000  Level FlightAware UK
Wed 05:35:02 AM 48.5168 -4.5793 127° Southeast 504 580 35,000  Level FlightAware UK
Wed 05:35:07 AM 48.5170 -4.6070 127° Southeast 522 601 35,000  Level FlightAware ADS-B
Wed 05:35:32 AM 48.4729 -4.4932 127° Southeast 504 580 35,000  Level FlightAware UK
Wed 05:35:51 AM 48.4530 -4.4780 127° Southeast 523 602 35,000  Level FlightAware ADS-B
Wed 05:36:08 AM 48.4200 -4.3897 127° Southeast 506 582 35,000  Level FlightAware UK
Wed 05:36:31 AM 48.3950 -4.3650 128° Southeast 523 602 35,000  Level FlightAware ADS-B
Wed 05:36:32 AM 48.3846 -4.3208 128° Southeast 506 582 35,000  Level FlightAware UK
Wed 05:36:50 AM 48.3580 -4.2690 128° Southeast 508 585 35,000  Level FlightAware UK
Wed 05:37:15 AM 48.3300 -4.2370 128° Southeast 524 603 35,000  Level FlightAware ADS-B
Wed 05:37:38 AM 48.2864 -4.1307 128° Southeast 510 587 35,000  Level FlightAware UK
Wed 05:37:56 AM 48.2700 -4.1200 128° Southeast 523 602 35,000  Level FlightAware ADS-B
Wed 05:38:41 AM 48.2050 -3.9900 127° Southeast 522 601 35,000  Level FlightAware ADS-B
Wed 05:39:21 AM 48.1470 -3.8740 127° Southeast 521 600 35,000  Level FlightAware ADS-B
Wed 05:40:05 AM 48.0830 -3.7450 127° Southeast 520 598 35,000  Level FlightAware ADS-B
Wed 05:40:43 AM 48.0280 -3.6360 127° Southeast 519 597 35,000  Level FlightAware ADS-B
Wed 05:41:26 AM 47.9660 -3.5150 127° Southeast 520 598 35,000  Level FlightAware ADS-B
Wed 05:42:11 AM 47.9020 -3.3890 127° Southeast 522 601 35,000  Level FlightAware ADS-B
Wed 05:42:51 AM 47.8410 -3.2710 128° Southeast 522 601 35,000  Level FlightAware ADS-B
Wed 05:43:35 AM 47.7810 -3.1420 125° Southeast 521 600 35,000  Level FlightAware ADS-B
Wed 05:44:15 AM 47.7260 -3.0230 124° Southeast 521 600 35,000  Level FlightAware ADS-B
Wed 05:44:59 AM 47.6640 -2.8940 125° Southeast 520 598 35,000  Level FlightAware ADS-B
Wed 05:45:39 AM 47.6100 -2.7800 125° Southeast 519 597 35,000  Level FlightAware ADS-B
Wed 05:46:23 AM 47.5480 -2.6520 126° Southeast 520 598 35,000  Level FlightAware ADS-B
Wed 05:47:03 AM 47.4920 -2.5380 126° Southeast 518 596 35,000  Level FlightAware ADS-B
Wed 05:47:43 AM 47.4360 -2.4220 125° Southeast 517 595 35,000  Level FlightAware ADS-B
Wed 05:48:27 AM 47.3740 -2.2960 126° Southeast 517 595 35,000  Level FlightAware ADS-B
Wed 05:49:07 AM 47.3180 -2.1830 126° Southeast 516 594 35,000  Level FlightAware ADS-B
Wed 05:49:53 AM 47.2550 -2.0540 126° Southeast 516 594 35,000  Level FlightAware ADS-B
Wed 05:50:32 AM 47.2000 -1.9440 126° Southeast 516 594 35,000  Level FlightAware ADS-B
Wed 05:51:17 AM 47.1350 -1.8130 126° Southeast 515 593 35,000  Level FlightAware ADS-B
Wed 05:51:57 AM 47.0790 -1.7030 127° Southeast 516 594 35,000  Level FlightAware ADS-B
Wed 05:52:35 AM 47.0250 -1.5950 126° Southeast 517 595 35,000  Level FlightAware ADS-B
Wed 05:53:23 AM 46.9580 -1.4620 126° Southeast 516 594 35,000  Level FlightAware ADS-B
Wed 05:54:03 AM 46.9000 -1.3480 127° Southeast 515 593 35,000  Level FlightAware ADS-B
Wed 05:54:43 AM 46.8420 -1.2350 127° Southeast 515 593 35,000  Level FlightAware ADS-B
Wed 05:55:25 AM 46.7840 -1.1210 127° Southeast 514 592 35,000  Level FlightAware ADS-B
Wed 05:56:09 AM 46.7210 -1.0000 127° Southeast 514 592 35,000  Level FlightAware ADS-B
Wed 05:56:51 AM 46.6600 -0.8820 127° Southeast 513 590 35,000  Level FlightAware ADS-B
Wed 05:57:36 AM 46.6060 -0.7770 127° Southeast 513 590 35,000  Level FlightAware ADS-B
Wed 05:59:10 AM 46.4620 -0.5040 127° Southeast 508 585 35,000  Level FlightAware ADS-B
Wed 05:59:55 AM 46.3970 -0.3810 127° Southeast 508 585 35,000  Level FlightAware ADS-B
Wed 06:00:35 AM 46.3450 -0.2670 123° Southeast 508 585 35,000  Level FlightAware ADS-B
Wed 06:01:15 AM 46.3220 -0.1390 105° East 509 586 35,000  Level FlightAware ADS-B
Wed 06:01:55 AM 46.3090 -0.0040 98° East 509 586 35,000  Level FlightAware ADS-B
Wed 06:02:40 AM 46.2960 0.1390 97° East 509 586 35,000  Level FlightAware ADS-B
Wed 06:03:21 AM 46.2820 0.2870 98° East 509 586 35,000  Level FlightAware ADS-B
Wed 06:04:00 AM 46.2690 0.4210 98° East 509 586 35,000  Level FlightAware ADS-B
Wed 06:04:45 AM 46.2580 0.5530 97° East 509 586 35,000  Level FlightAware ADS-B
Wed 06:05:21 AM 46.2490 0.6570 97° East 509 586 35,000  Level FlightAware ADS-B
Wed 06:06:09 AM 46.2370 0.7950 97° East 509 586 35,000  Level FlightAware ADS-B
Wed 06:06:45 AM 46.2280 0.8980 97° East 509 586 35,000  Level FlightAware ADS-B
Wed 06:07:34 AM 46.2160 1.0390 97° East 509 586 35,000  Level FlightAware ADS-B
Wed 06:08:16 AM 46.1820 1.2820 101° East 509 586 35,000  Level FlightAware ADS-B
Wed 06:08:54 AM 46.1710 1.3970 98° East 508 585 35,000  Level FlightAware ADS-B
Wed 06:09:50 AM 46.1500 1.5890 99° East 509 586 35,000  Level FlightAware ADS-B
Wed 06:10:38 AM 46.1310 1.7590 99° East 509 586 35,000  Level FlightAware ADS-B
Wed 06:11:28 AM 46.1170 1.8860 99° East 509 586 35,000  Level FlightAware ADS-B
Wed 06:12:13 AM 46.0960 2.0750 99° East 510 587 35,000  Level FlightAware ADS-B
Wed 06:12:54 AM 46.0800 2.2140 99° East 509 586 35,000  Level FlightAware ADS-B
Wed 06:13:38 AM 46.0630 2.3630 99° East 509 586 35,000  Level FlightAware ADS-B
Wed 06:14:21 AM 46.0460 2.5100 99° East 508 585 35,000  Level FlightAware ADS-B
Wed 06:15:01 AM 46.0310 2.6410 99° East 507 583 35,000  Level FlightAware ADS-B
Wed 06:15:43 AM 45.9990 2.7740 109° East 503 579 35,000  Level FlightAware ADS-B
Wed 06:16:25 AM 45.9320 2.8740 134° Southeast 500 575 35,000  Level FlightAware ADS-B
Wed 06:17:09 AM 45.8570 2.9690 139° Southeast 501 577 35,000  Level FlightAware ADS-B
Wed 06:17:49 AM 45.7860 3.0570 139° Southeast 500 575 35,000  Level FlightAware ADS-B
Wed 06:18:33 AM 45.7080 3.1540 139° Southeast 500 575 35,000  Level FlightAware ADS-B
Wed 06:19:13 AM 45.6390 3.2390 139° Southeast 500 575 35,000  Level FlightAware ADS-B
Wed 06:19:59 AM 45.5600 3.3370 139° Southeast 501 577 35,000  Level FlightAware ADS-B
Wed 06:20:39 AM 45.4890 3.4250 139° Southeast 498 573 35,000  Level FlightAware ADS-B
Wed 06:21:21 AM 45.4170 3.5160 138° Southeast 498 573 35,000  Level FlightAware ADS-B
Wed 06:22:03 AM 45.3440 3.6080 138° Southeast 499 574 35,000  Level FlightAware ADS-B
Wed 06:22:47 AM 45.2670 3.7050 138° Southeast 499 574 35,000  Level FlightAware ADS-B
Wed 06:23:27 AM 45.1990 3.7950 137° Southeast 502 578 35,000  Level FlightAware ADS-B
Wed 06:24:07 AM 45.1470 3.9020 125° Southeast 508 585 35,000  Level FlightAware ADS-B
Wed 06:24:51 AM 45.1230 4.0460 103° East 515 593 35,000  Level FlightAware ADS-B
Wed 06:25:31 AM 45.1260 4.1790 88° East 519 597 35,000  Level FlightAware ADS-B
Wed 06:26:15 AM 45.1090 4.3260 99° East 515 593 35,000  Level FlightAware ADS-B
Wed 06:26:56 AM 45.0570 4.4360 124° Southeast 508 585 35,000  Level FlightAware ADS-B
Wed 06:27:39 AM 44.9940 4.5470 129° Southeast 508 585 35,000  Level FlightAware ADS-B
Wed 06:28:19 AM 44.9330 4.6520 129° Southeast 509 586 35,000  Level FlightAware ADS-B
Wed 06:29:03 AM 44.8670 4.7680 129° Southeast 510 587 35,000  Level FlightAware ADS-B
Wed 06:29:43 AM 44.8080 4.8700 129° Southeast 512 589 35,000  Level FlightAware ADS-B
Wed 06:30:29 AM 44.7400 4.9900 129° Southeast 513 590 35,000  Level FlightAware ADS-B
Wed 06:31:09 AM 44.6820 5.0930 128° Southeast 513 590 35,000  Level FlightAware ADS-B
Wed 06:31:47 AM 44.6260 5.1900 129° Southeast 513 590 35,000  Level FlightAware ADS-B
Wed 06:32:33 AM 44.5580 5.3100 128° Southeast 513 590 35,000  Level FlightAware ADS-B
Wed 06:33:17 AM 44.4910 5.4260 129° Southeast 513 590 35,000  Level FlightAware ADS-B
Wed 06:33:55 AM 44.4350 5.5260 128° Southeast 513 590 35,000  Level FlightAware ADS-B
Wed 06:34:41 AM 44.3670 5.6470 128° Southeast 511 588 35,000  Level FlightAware ADS-B
Wed 06:35:21 AM 44.3130 5.7540 125° Southeast 512 589 35,000  Level FlightAware ADS-B
Wed 06:36:05 AM 44.2590 5.8760 122° Southeast 513 590 35,000  Level FlightAware ADS-B
Wed 06:36:45 AM 44.2090 5.9910 121° Southeast 512 589 35,000  Level FlightAware ADS-B
Wed 06:37:25 AM 44.1610 6.1010 121° Southeast 510 587 35,000  Level FlightAware ADS-B
Wed 06:38:11 AM 44.1030 6.2310 122° Southeast 509 586 35,000  Level FlightAware ADS-B
Wed 06:38:51 AM 44.0540 6.3420 122° Southeast 508 585 35,000  Level FlightAware ADS-B
Wed 06:39:33 AM 44.0010 6.4600 122° Southeast 508 585 35,000  Level FlightAware ADS-B
Wed 06:40:15 AM 43.9490 6.5740 122° Southeast 508 585 35,000  Level FlightAware ADS-B
Wed 06:40:57 AM 43.8960 6.6930 122° Southeast 510 587 35,000  Level FlightAware ADS-B
Wed 06:41:39 AM 43.8450 6.8050 122° Southeast 513 590 35,000  Level FlightAware ADS-B
Wed 06:42:23 AM 43.7890 6.9290 122° Southeast 516 594 35,000  Level FlightAware ADS-B
Wed 06:43:03 AM 43.7380 7.0400 122° Southeast 517 595 35,000  Level FlightAware ADS-B
Wed 06:43:45 AM 43.6840 7.1590 122° Southeast 516 594 35,000  Level FlightAware ADS-B
Wed 06:44:25 AM 43.6330 7.2690 123° Southeast 516 594 35,000  Level FlightAware ADS-B
Wed 06:45:09 AM 43.5760 7.3940 122° Southeast 513 590 35,000  Level FlightAware ADS-B
Wed 06:45:53 AM 43.5190 7.5160 123° Southeast 513 590 35,000  Level FlightAware ADS-B
Wed 06:46:27 AM 43.4780 7.6040 123° Southeast 512 589 35,000  Level FlightAware ADS-B
Wed 06:47:15 AM 43.4150 7.7380 123° Southeast 512 589 35,000  Level FlightAware ADS-B
Wed 06:47:55 AM 43.3630 7.8500 123° Southeast 510 587 35,000  Level FlightAware ADS-B
Wed 06:48:31 AM 43.3180 7.9460 123° Southeast 511 588 35,000  Level FlightAware ADS-B
Wed 06:49:23 AM 43.2510 8.0890 123° Southeast 512 589 35,000  Level FlightAware ADS-B
Wed 06:49:57 AM 43.2060 8.1820 124° Southeast 512 589 35,000  Level FlightAware ADS-B
Wed 06:50:45 AM 43.1450 8.3120 123° Southeast 510 587 35,000  Level FlightAware ADS-B
Wed 06:51:21 AM 43.1010 8.4040 123° Southeast 509 586 35,000  Level FlightAware ADS-B
Wed 06:51:59 AM 43.0530 8.5040 123° Southeast 508 585 35,000  Level FlightAware ADS-B
Wed 06:52:43 AM 43.0020 8.6090 124° Southeast 506 582 35,000  Level FlightAware ADS-B
Wed 06:53:24 AM 42.9400 8.7380 123° Southeast 506 582 35,000  Level FlightAware ADS-B
Wed 06:54:21 AM 42.8670 8.8900 123° Southeast 505 581 35,000  Level FlightAware ADS-B
Wed 06:54:57 AM 42.8210 8.9840 124° Southeast 505 581 35,000  Level FlightAware ADS-B
Wed 06:55:46 AM 42.7580 9.1130 124° Southeast 505 581 35,000  Level FlightAware ADS-B
Wed 06:56:26 AM 42.7070 9.2180 123° Southeast 503 579 35,000  Level FlightAware ADS-B
Wed 06:57:01 AM 42.6600 9.3120 124° Southeast 501 577 35,000  Level FlightAware ADS-B
Wed 06:57:48 AM 42.6020 9.4360 122° Southeast 509 586 35,000  Level FlightAware ADS-B
Wed 06:58:31 AM 42.5630 9.5650 112° Southeast 518 596 35,000  Level FlightAware ADS-B
Wed 06:59:27 AM 42.5100 9.7310 113° Southeast 510 587 35,000  Level FlightAware ADS-B
Wed 07:00:01 AM 42.4690 9.8240 121° Southeast 504 580 35,000  Level FlightAware ADS-B
Wed 07:00:51 AM 42.4180 9.9350 122° Southeast 502 578 35,000  Level FlightAware ADS-B
Wed 07:01:32 AM 42.3560 10.0660 123° Southeast 507 583 35,000  Level FlightAware ADS-B
Wed 07:02:30 AM 42.2820 10.2230 122° Southeast 508 585 35,000  Level FlightAware ADS-B
Wed 07:03:24 AM 42.2170 10.3610 122° Southeast 506 582 35,000  Level FlightAware ADS-B
Wed 07:04:07 AM 42.1600 10.4810 123° Southeast 505 581 35,000  Level FlightAware ADS-B
Wed 07:04:46 AM 42.1190 10.5670 123° Southeast 507 583 35,000  Level FlightAware ADS-B
Wed 07:05:22 AM 42.0670 10.6750 123° Southeast 509 586 35,000  Level FlightAware ADS-B
Wed 07:06:25 AM 41.9850 10.8450 123° Southeast 510 587 35,000  Level FlightAware ADS-B
Wed 07:07:23 AM 41.9140 10.9900 123° Southeast 511 588 35,000  Level FlightAware ADS-B
Wed 07:08:04 AM 41.8560 11.1100 123° Southeast 512 589 35,000  Level FlightAware ADS-B
Wed 07:08:55 AM 41.7910 11.2430 123° Southeast 505 581 35,000  Level FlightAware ADS-B
Wed 07:09:35 AM 41.7410 11.3460 123° Southeast 505 581 35,000  Level FlightAware ADS-B
Wed 07:10:26 AM 41.6760 11.4770 124° Southeast 502 578 35,000  Level FlightAware ADS-B
Wed 07:11:39 AM 41.5890 11.6580 123° Southeast 502 578 35,000  Level FlightAware ADS-B
Wed 07:12:26 AM 41.5210 11.7880 125° Southeast 505 581 35,000  Level FlightAware ADS-B
Wed 07:13:08 AM 41.4620 11.9060 124° Southeast 508 585 35,000  Level FlightAware ADS-B
Wed 07:13:52 AM 41.4160 11.9980 124° Southeast 510 587 35,000  Level FlightAware ADS-B
Wed 07:14:28 AM 41.3560 12.1170 124° Southeast 516 594 35,000  Level FlightAware ADS-B
Wed 07:15:09 AM 41.3040 12.2190 124° Southeast 516 594 35,000  Level FlightAware ADS-B
Wed 07:15:38 AM 41.2640 12.2980 124° Southeast 516 594 35,000  Level FlightAware ADS-B
Wed 07:16:28 AM 41.1960 12.4300 124° Southeast 517 595 35,000  Level FlightAware ADS-B
Wed 07:17:08 AM 41.1440 12.5330 124° Southeast 517 595 35,000  Level FlightAware ADS-B
Wed 07:18:03 AM 41.0690 12.6790 124° Southeast 517 595 35,000  Level FlightAware ADS-B
Wed 07:18:58 AM 40.9940 12.8240 124° Southeast 517 595 35,000  Level FlightAware ADS-B
Wed 07:19:40 AM 40.9370 12.9360 124° Southeast 519 597 35,000  Level FlightAware ADS-B
Wed 07:20:35 AM 40.8710 13.0840 120° Southeast 524 603 35,000  Level FlightAware ADS-B
Wed 07:21:34 AM 40.7980 13.2520 120° Southeast 522 601 35,000  Level FlightAware ADS-B
Wed 07:22:14 AM 40.7510 13.3610 120° Southeast 522 601 35,000  Level FlightAware ADS-B
Wed 07:23:04 AM 40.7020 13.4730 120° Southeast 524 603 35,000  Level FlightAware ADS-B
Wed 07:23:49 AM 40.6340 13.6250 120° Southeast 525 604 35,000  Level FlightAware ADS-B
Wed 07:24:37 AM 40.5750 13.7580 120° Southeast 526 605 35,000  Level FlightAware ADS-B
Wed 07:25:19 AM 40.5250 13.8690 121° Southeast 527 606 35,000  Level FlightAware ADS-B
Wed 07:26:15 AM 40.4560 14.0230 120° Southeast 527 606 35,000  Level FlightAware ADS-B
Wed 07:27:11 AM 40.3850 14.1810 121° Southeast 528 608 35,000  Level FlightAware ADS-B
Wed 07:27:50 AM 40.3380 14.2860 120° Southeast 528 608 35,000  Level FlightAware ADS-B
Wed 07:28:49 AM 40.2620 14.4530 121° Southeast 529 609 35,000  Level FlightAware ADS-B
Wed 07:29:43 AM 40.1950 14.5990 121° Southeast 530 610 35,000  Level FlightAware ADS-B
Wed 07:30:39 AM 40.1250 14.7510 121° Southeast 530 610 35,000  Level FlightAware ADS-B
Wed 07:31:14 AM 40.0810 14.8480 121° Southeast 530 610 35,000  Level FlightAware ADS-B
Wed 07:32:16 AM 40.0030 15.0170 121° Southeast 529 609 35,000  Level FlightAware ADS-B
Wed 07:33:11 AM 39.9320 15.1680 121° Southeast 532 612 35,000  Level FlightAware ADS-B
Wed 07:34:11 AM 39.8560 15.3300 121° Southeast 534 615 35,000  Level FlightAware ADS-B
Wed 07:34:50 AM 39.8040 15.4410 121° Southeast 537 618 35,000  Level FlightAware ADS-B
Wed 07:35:46 AM 39.7330 15.5930 121° Southeast 536 617 35,000  Level FlightAware ADS-B
Wed 07:36:43 AM 39.6570 15.7540 121° Southeast 541 623 35,000  Level FlightAware ADS-B
Wed 07:37:22 AM 39.6060 15.8610 122° Southeast 544 626 35,000  Level FlightAware ADS-B
Wed 07:37:47 AM 39.5730 15.9300 122° Southeast 547 629 35,000  Level FlightAware ADS-B
Wed 07:38:38 AM 39.5070 16.0690 122° Southeast 551 634 35,000  Level FlightAware ADS-B
Wed 07:39:22 AM 39.4620 16.2050 113° Southeast 565 650 35,000  Level FlightAware ADS-B
Wed 07:40:21 AM 39.4050 16.3980 111° Southeast 570 656 35,000  Level FlightAware ADS-B
Wed 07:41:19 AM 39.3470 16.5790 112° Southeast 573 659 35,000  Level FlightAware ADS-B
Wed 07:41:56 AM 39.3100 16.6930 113° Southeast 573 659 35,000  Level FlightAware ADS-B
Wed 07:42:21 AM 39.2830 16.7750 113° Southeast 573 659 35,000  Level FlightAware ADS-B
Wed 07:43:21 AM 39.2190 16.9650 113° Southeast 573 659 35,000  Level FlightAware ADS-B
Wed 07:44:20 AM 39.1620 17.1320 114° Southeast 574 661 35,000  Level FlightAware ADS-B
Wed 07:45:14 AM 39.1140 17.2810 113° Southeast 579 666 35,000  Level FlightAware ADS-B
Wed 07:46:12 AM 39.0480 17.4880 112° Southeast 582 670 35,000 522 Level FlightAware ADS-B
Wed 07:46:46 AM 39.0140 17.5940 112° Southeast 584 672 35,800 1,360 Climbing FlightAware ADS-B
Wed 07:47:27 AM 38.9700 17.7280 113° Southeast 584 672 36,700 828 Climbing FlightAware ADS-B
Wed 07:48:13 AM 38.9300 17.8500 113° Southeast 584 672 37,000 220 Climbing FlightAware ADS-B
Wed 07:48:49 AM 38.8880 17.9770 113° Southeast 581 669 37,000  Level FlightAware ADS-B
Wed 07:49:29 AM 38.8460 18.1050 113° Southeast 580 667 37,000  Level FlightAware ADS-B
Wed 07:50:17 AM 38.7920 18.2660 113° Southeast 580 667 37,000  Level FlightAware ADS-B
Wed 07:50:49 AM 38.7580 18.3690 113° Southeast 581 669 37,000  Level FlightAware ADS-B
Wed 07:51:29 AM 38.7180 18.4880 113° Southeast 581 669 37,000  Level FlightAware ADS-B
Wed 07:51:55 AM 38.6920 18.5640 114° Southeast 582 670 37,000  Level FlightAware ADS-B
Wed 07:52:51 AM 38.6320 18.7440 113° Southeast 583 671 37,000  Level FlightAware ADS-B
Wed 07:53:48 AM 38.5750 18.9100 114° Southeast 585 673 37,000  Level FlightAware ADS-B
Wed 07:54:22 AM 38.5280 19.0600 112° Southeast 583 671 37,000  Level FlightAware ADS-B
Wed 07:55:02 AM 38.4890 19.1850 112° Southeast 583 671 37,000  Level FlightAware ADS-B
Wed 07:55:27 AM 38.4620 19.2700 112° Southeast 583 671 37,000  Level FlightAware ADS-B
Wed 07:56:03 AM 38.4260 19.3830 112° Southeast 583 671 37,000  Level FlightAware ADS-B
Wed 07:56:47 AM 38.3810 19.5260 112° Southeast 583 671 37,000  Level FlightAware ADS-B
Wed 07:57:32 AM 38.3360 19.6670 112° Southeast 583 671 37,000  Level FlightAware ADS-B
Wed 07:58:27 AM 38.2770 19.8470 113° Southeast 586 674 37,000  Level FlightAware ADS-B
Wed 07:59:23 AM 38.2210 20.0200 112° Southeast 587 676 37,000  Level FlightAware ADS-B
Wed 08:00:18 AM 38.1630 20.1960 113° Southeast 589 678 37,000  Level FlightAware ADS-B
Wed 08:00:58 AM 38.1210 20.3240 113° Southeast 591 680 37,000  Level FlightAware ADS-B
Wed 08:01:53 AM 38.0630 20.5010 113° Southeast 594 684 37,000  Level FlightAware ADS-B
Wed 08:02:32 AM 38.0210 20.6270 113° Southeast 592 681 37,000  Level FlightAware ADS-B
Wed 08:02:58 AM 37.9930 20.7100 113° Southeast 592 681 37,000  Level FlightAware ADS-B
Wed 08:03:32 AM 37.9560 20.8200 113° Southeast 593 682 37,000  Level FlightAware ADS-B
Wed 08:04:28 AM 37.8970 20.9960 113° Southeast 594 684 37,000  Level FlightAware ADS-B
Wed 08:05:23 AM 37.8400 21.1620 113° Southeast 594 684 37,000  Level FlightAware ADS-B
Wed 08:05:58 AM 37.8020 21.2740 113° Southeast 594 684 37,000  Level FlightAware ADS-B
Wed 08:06:32 AM 37.7590 21.4000 113° Southeast 599 689 37,000  Level FlightAware ADS-B
Wed 08:07:02 AM 37.7270 21.4940 113° Southeast 599 689 37,000  Level FlightAware ADS-B
Wed 08:07:50 AM 37.6720 21.6530 114° Southeast 598 688 37,000  Level FlightAware ADS-B
Wed 08:08:32 AM 37.6270 21.7810 114° Southeast 598 688 37,000  Level FlightAware ADS-B
Wed 08:09:26 AM 37.5660 21.9570 114° Southeast 597 687 37,000  Level FlightAware ADS-B
Wed 08:10:06 AM 37.5210 22.0850 114° Southeast 597 687 37,000  Level FlightAware ADS-B
Wed 08:10:50 AM 37.4710 22.2260 114° Southeast 598 688 37,000  Level FlightAware ADS-B
Wed 08:11:28 AM 37.4340 22.3350 113° Southeast 597 687 37,000  Level FlightAware ADS-B
Wed 08:12:08 AM 37.3870 22.4750 113° Southeast 600 690 37,000  Level FlightAware ADS-B
Wed 08:12:39 AM 37.3560 22.5690 113° Southeast 600 690 37,000  Level FlightAware ADS-B
Wed 08:13:20 AM 37.3120 22.7050 112° Southeast 599 689 37,000  Level FlightAware ADS-B
Wed 08:14:04 AM 37.2660 22.8470 112° Southeast 599 689 37,000  Level FlightAware ADS-B
Wed 08:14:46 AM 37.2210 22.9820 113° Southeast 599 689 37,000  Level FlightAware ADS-B
Wed 08:15:30 AM 37.1720 23.1260 113° Southeast 599 689 37,000  Level FlightAware ADS-B
Wed 08:16:07 AM 37.1330 23.2430 113° Southeast 601 692 37,000  Level FlightAware ADS-B
Wed 08:16:54 AM 37.0820 23.3930 113° Southeast 601 692 37,000  Level FlightAware ADS-B
Wed 08:17:34 AM 37.0400 23.5180 113° Southeast 600 690 37,000  Level FlightAware ADS-B
Wed 08:18:18 AM 36.9920 23.6600 113° Southeast 599 689 37,000  Level FlightAware ADS-B
Wed 08:18:58 AM 36.9470 23.7900 113° Southeast 600 690 37,000  Level FlightAware ADS-B
Wed 08:19:38 AM 36.9040 23.9150 113° Southeast 599 689 37,000  Level FlightAware ADS-B
Wed 08:20:20 AM 36.8580 24.0490 113° Southeast 599 689 37,000  Level FlightAware ADS-B
Wed 08:21:00 AM 36.8130 24.1770 114° Southeast 599 689 37,000  Level FlightAware ADS-B
Wed 08:21:46 AM 36.7640 24.3170 114° Southeast 599 689 37,000  Level FlightAware ADS-B
Wed 08:22:26 AM 36.7190 24.4460 113° Southeast 598 688 37,000  Level FlightAware ADS-B
Wed 08:23:11 AM 36.6720 24.5820 113° Southeast 596 686 37,000  Level FlightAware ADS-B
Wed 08:23:50 AM 36.6260 24.7110 114° Southeast 597 687 37,000  Level FlightAware ADS-B
Wed 08:24:30 AM 36.5810 24.8370 114° Southeast 597 687 37,000  Level FlightAware ADS-B
Wed 08:25:15 AM 36.5320 24.9760 114° Southeast 596 686 37,000  Level FlightAware ADS-B
Wed 08:26:00 AM 36.4800 25.1210 114° Southeast 595 685 37,000  Level FlightAware ADS-B
Wed 08:26:40 AM 36.4370 25.2390 114° Southeast 594 684 37,000  Level FlightAware ADS-B
Wed 08:27:20 AM 36.3920 25.3650 114° Southeast 592 681 37,000  Level FlightAware ADS-B
Wed 08:28:00 AM 36.3460 25.4910 114° Southeast 589 678 37,000  Level FlightAware ADS-B
Wed 08:28:46 AM 36.2950 25.6310 114° Southeast 588 677 37,000  Level FlightAware ADS-B
Wed 08:29:25 AM 36.2510 25.7500 115° Southeast 590 679 37,000  Level FlightAware ADS-B
Wed 08:30:06 AM 36.2060 25.8740 114° Southeast 588 677 37,000  Level FlightAware ADS-B
Wed 08:30:51 AM 36.1550 26.0120 115° Southeast 589 678 37,000  Level FlightAware ADS-B
Wed 08:31:30 AM 36.1100 26.1340 115° Southeast 590 679 37,000  Level FlightAware ADS-B
Wed 08:32:16 AM 36.0580 26.2740 115° Southeast 589 678 37,000  Level FlightAware ADS-B
Wed 08:32:55 AM 36.0120 26.3960 115° Southeast 588 677 37,000  Level FlightAware ADS-B
Wed 08:33:41 AM 35.9610 26.5340 115° Southeast 586 674 37,000  Level FlightAware ADS-B
Wed 08:34:20 AM 35.9150 26.6540 115° Southeast 587 676 37,000  Level FlightAware ADS-B
Wed 08:35:04 AM 35.8630 26.7930 115° Southeast 591 680 37,000  Level FlightAware ADS-B
Wed 08:35:48 AM 35.8130 26.9260 115° Southeast 590 679 37,000  Level FlightAware ADS-B
Wed 08:36:27 AM 35.7680 27.0430 115° Southeast 590 679 37,000  Level FlightAware ADS-B
Wed 08:37:07 AM 35.7260 27.1530 115° Southeast 590 679 37,000  Level FlightAware ADS-B
Wed 08:37:56 AM 35.6780 27.2800 115° Southeast 590 679 37,000  Level FlightAware ADS-B
Wed 08:38:33 AM 35.6420 27.3760 115° Southeast 590 679 37,000  Level FlightAware ADS-B
Wed 08:39:41 AM 35.5480 27.6150 116° Southeast 585 673 37,000  Level FlightAware ADS-B
Wed 08:40:25 AM 35.4920 27.7590 115° Southeast 583 671 37,000  Level FlightAware ADS-B
Wed 08:41:20 AM 35.4370 27.9050 115° Southeast 582 670 37,000  Level FlightAware ADS-B
Wed 08:42:04 AM 35.3750 28.0600 116° Southeast 585 673 37,000  Level FlightAware ADS-B
Wed 08:42:47 AM 35.3240 28.1870 116° Southeast 585 673 37,000  Level FlightAware ADS-B
Wed 08:43:28 AM 35.2760 28.3100 116° Southeast 584 672 37,000 -585 Level FlightAware ADS-B
Wed 08:44:09 AM 35.2290 28.4300 116° Southeast 583 671 36,200 -1,157 Descending FlightAware ADS-B
Wed 08:44:51 AM 35.1780 28.5580 116° Southeast 582 670 35,400 -828 Descending FlightAware ADS-B
Wed 08:45:36 AM 35.1280 28.6840 116° Southeast 574 661 35,000 -282 Descending FlightAware ADS-B
Wed 08:46:16 AM 35.0810 28.8010 116° Southeast 572 658 35,000  Level FlightAware ADS-B
Wed 08:46:58 AM 35.0320 28.9230 116° Southeast 570 656 35,000  Level FlightAware ADS-B
Wed 08:47:41 AM 34.9910 29.0270 116° Southeast 570 656 35,000  Level FlightAware ADS-B
Wed 08:48:18 AM 34.9560 29.1190 115° Southeast 570 656 35,000  Level FlightAware ADS-B
Wed 08:49:15 AM 34.8720 29.3170 117° Southeast 576 663 35,000  Level FlightAware ADS-B
Wed 08:50:02 AM 34.8180 29.4510 116° Southeast 576 663 35,000  Level FlightAware ADS-B
Wed 08:50:45 AM 34.7640 29.5840 116° Southeast 570 656 35,000  Level FlightAware ADS-B
Wed 08:51:20 AM 34.7230 29.6840 116° Southeast 569 655 35,000  Level FlightAware ADS-B
Wed 08:52:05 AM 34.6690 29.8150 117° Southeast 565 650 35,000  Level FlightAware ADS-B
Wed 08:52:50 AM 34.6180 29.9370 117° Southeast 563 648 35,000  Level FlightAware ADS-B
Wed 08:53:25 AM 34.5710 30.0400 119° Southeast 563 648 35,000  Level FlightAware ADS-B
Wed 08:54:10 AM 34.5180 30.1560 119° Southeast 562 647 35,000  Level FlightAware ADS-B
Wed 08:54:56 AM 34.4550 30.2870 120° Southeast 556 640 35,000  Level FlightAware ADS-B
Wed 08:55:36 AM 34.4030 30.3950 120° Southeast 555 639 35,000  Level FlightAware ADS-B
Wed 08:56:17 AM 34.3500 30.5070 120° Southeast 554 638 35,000  Level FlightAware ADS-B
Wed 08:56:57 AM 34.2970 30.6150 121° Southeast 552 635 35,000  Level FlightAware ADS-B
Wed 08:57:42 AM 34.2390 30.7360 120° Southeast 550 633 35,000  Level FlightAware ADS-B
Wed 08:58:23 AM 34.1870 30.8440 120° Southeast 553 636 35,000  Level FlightAware ADS-B
Wed 08:59:03 AM 34.1390 30.9420 121° Southeast 548 631 35,000  Level FlightAware ADS-B
Wed 08:59:48 AM 34.0770 31.0710 120° Southeast 552 635 35,000  Level FlightAware ADS-B
Wed 09:00:33 AM 34.0180 31.1910 121° Southeast 547 629 35,000  Level FlightAware ADS-B
Wed 09:01:09 AM 33.9740 31.2830 120° Southeast 547 629 35,000  Level FlightAware ADS-B
Wed 09:01:54 AM 33.9140 31.4040 121° Southeast 546 628 35,000  Level FlightAware ADS-B
Wed 09:02:34 AM 33.8620 31.5110 120° Southeast 547 629 35,000 -279 Level FlightAware ADS-B
Wed 09:03:20 AM 33.8030 31.6310 121° Southeast 547 629 34,600 -698 Descending FlightAware ADS-B
Wed 09:04:00 AM 33.7510 31.7380 120° Southeast 545 627 34,000 -776 Descending FlightAware ADS-B
Wed 09:04:45 AM 33.6940 31.8530 121° Southeast 541 623 33,500 -635 Descending FlightAware ADS-B
Wed 09:05:25 AM 33.6430 31.9550 121° Southeast 537 618 33,100 -675 Descending FlightAware ADS-B
Wed 09:06:05 AM 33.5920 32.0580 121° Southeast 531 611 32,600 -776 Descending FlightAware ADS-B
Wed 09:06:50 AM 33.5360 32.1700 121° Southeast 528 608 32,000 -847 Descending FlightAware ADS-B
Wed 09:07:30 AM 33.4850 32.2720 121° Southeast 521 600 31,400 -847 Descending FlightAware ADS-B
Wed 09:08:15 AM 33.4290 32.3840 121° Southeast 515 593 30,800 -706 Descending FlightAware ADS-B
Wed 09:08:55 AM 33.3790 32.4820 121° Southeast 509 586 30,400 -675 Descending FlightAware ADS-B
Wed 09:09:35 AM 33.3330 32.5750 121° Southeast 509 586 29,900 -767 Descending FlightAware ADS-B
Wed 09:10:21 AM 33.2760 32.6870 121° Southeast 505 581 29,300 -828 Descending FlightAware ADS-B
Wed 09:11:31 AM 33.1910 32.8560 121° Southeast 500 575 28,300 -783 Descending FlightAware ADS-B
Wed 09:12:16 AM 33.1490 32.9380 121° Southeast 490 564 27,800 -865 Descending FlightAware ADS-B
Wed 09:13:15 AM 33.0730 33.0890 121° Southeast 487 560 26,800 -1,588 Descending FlightAware ADS-B
Wed 09:13:58 AM 33.0180 33.1950 122° Southeast 485 558 25,100 -1,950 Descending FlightAware ADS-B
Wed 09:14:35 AM 32.9740 33.2810 121° Southeast 480 552 24,200 -1,929 Descending FlightAware ADS-B
Wed 09:15:22 AM 32.9190 33.3870 122° Southeast 473 544 22,400 -2,114 Descending FlightAware ADS-B
Wed 09:16:03 AM 32.8730 33.4760 122° Southeast 474 545 21,100 -1,852 Descending FlightAware ADS-B
Wed 09:16:43 AM 32.8260 33.5680 121° Southeast 463 533 19,900 -1,835 Descending FlightAware ADS-B
Wed 09:17:28 AM 32.7780 33.6610 122° Southeast 450 518 18,500 -1,929 Descending FlightAware ADS-B
Wed 09:18:07 AM 32.7350 33.7440 122° Southeast 436 502 17,200 -2,169 Descending FlightAware ADS-B
Wed 09:18:51 AM 32.6890 33.8320 122° Southeast 424 488 15,500 -2,488 Descending FlightAware ADS-B
Wed 09:19:29 AM 32.6500 33.9070 122° Southeast 419 482 13,800 -2,462 Descending FlightAware ADS-B
Wed 09:20:09 AM 32.6090 33.9840 122° Southeast 407 468 12,300 -2,022 Descending FlightAware ADS-B
Wed 09:20:58 AM 32.5620 34.0740 122° Southeast 389 448 10,800 -1,948 Descending FlightAware ADS-B
Wed 09:21:26 AM 32.5350 34.1250 122° Southeast 382 440 9,800 -1,745 Descending FlightAware ADS-B
Wed 09:21:53 AM 32.5060 34.1670 129° Southeast 368 423 9,200 -1,444 Descending FlightAware ADS-B
Wed 09:22:20 AM 32.4750 34.2060 133° Southeast 358 412 8,500 -1,680 Descending FlightAware ADS-B
Wed 09:22:43 AM 32.4470 34.2380 136° Southeast 354 407 7,800 -1,733 Descending FlightAware ADS-B
Wed 09:23:05 AM 32.4220 34.2680 135° Southeast 347 399 7,200 -720 Descending FlightAware ADS-B
Wed 09:23:33 AM 32.3950 34.3010 134° Southeast 347 399 7,200 -1,038 Level FlightAware ADS-B
Wed 09:23:57 AM 32.3690 34.3400 128° Southeast 328 377 6,300 -1,000 Descending FlightAware ADS-B
Wed 09:24:27 AM 32.3460 34.3770 126° Southeast 327 376 6,300 -468 Level FlightAware ADS-B
Wed 09:26:31 AM 32.2370 34.5350 129° Southeast 263 303 5,100 -468 Descending FlightAware ADS-B
Wed 09:27:01 AM 32.2160 34.5660 129° Southeast 264 304 5,100  Level FlightAware ADS-B
Wed 09:27:25 AM 32.1960 34.5940 130° Southeast 263 303 5,100  Level FlightAware ADS-B
Wed 09:27:55 AM 32.1750 34.6320 123° Southeast 262 302 5,100  Level FlightAware ADS-B
Wed 09:28:23 AM 32.1570 34.6660 122° Southeast 264 304 5,100  Level FlightAware ADS-B
Wed 09:28:54 AM 32.1370 34.7030 123° Southeast 264 304 5,100  Level FlightAware ADS-B
Wed 09:29:19 AM 32.1230 34.7270 125° Southeast 254 292 5,100  Level FlightAware ADS-B
Wed 09:29:49 AM 32.1030 34.7620 124° Southeast 232 267 5,100 -226 Level FlightAware ADS-B
Wed 09:30:12 AM 32.0840 34.7850 134° Southeast 229 264 4,900 -439 Descending FlightAware ADS-B
Wed 09:30:30 AM 32.0690 34.8010 138° Southeast 224 258 4,800 -391 Descending FlightAware ADS-B
Wed 09:30:58 AM 32.0490 34.8240 136° Southeast 216 249 4,600 -750 Descending FlightAware ADS-B
Wed 09:31:10 AM 32.0400 34.8340 137° Southeast 216 249 4,300 -1,297 Descending FlightAware ADS-B
Wed 09:31:35 AM 32.0230 34.8530 137° Southeast 204 235 3,800 -1,256 Descending FlightAware ADS-B
Wed 09:31:53 AM 32.0160 34.8690 117° Southeast 189 217 3,400 -1,102 Descending FlightAware ADS-B
Wed 09:32:24 AM 32.0190 34.8980 83° East 168 193 2,900 -889 Descending FlightAware ADS-B
Wed 09:32:47 AM 32.0230 34.9160 75° East 166 191 2,600 -792 Descending FlightAware ADS-B
Wed 09:33:17 AM 32.0290 34.9410 74° East 163 188 2,200 -800 Descending FlightAware ADS-B
Wed 09:35:00 AM 32.0095 34.8769 125° Southeast  Level Estimated
Wed 09:36:00 AM 32.0095 34.8769 125° Southeast  Level Estimated

Login

Don't have an account? Register now (free) for customized features, flight alerts, and more!